<?xml version="1.0" encoding="UTF-8" standalone="no" ?>
<gpx xmlns="http://www.topografix.com/GPX/1/1" xmlns:xsi="http://www.w3.org/2001/XMLSchema-instance" xsi:schemaLocation="http://www.topografix.com/GPX/1/1 http://www.topografix.com/GPX/1/1/gpx.xsd" version="1.1" creator="VisuGPX - https://www.visugpx.com">
  <metadata>
    <name>Andé - st-pierre-de manneville</name>
  </metadata>
  <trk>
    <name><![CDATA[Andé - st-pierre-de manneville- 58kms - 1500m]]></name>
    <trkseg>
      <trkpt lat="49.24256" lon="1.26284">
        <ele>40.908</ele>
        <time>2017-03-31T16:42:46Z</time>
      </trkpt>
      <trkpt lat="49.24258" lon="1.26259">
        <ele>41.088</ele>
        <time>2017-03-31T16:43:06Z</time>
      </trkpt>
      <trkpt lat="49.2428" lon="1.2624">
        <ele>40.62</ele>
        <time>2017-03-31T16:43:26Z</time>
      </trkpt>
      <trkpt lat="49.24289" lon="1.2626">
        <ele>40.669</ele>
        <time>2017-03-31T16:43:46Z</time>
      </trkpt>
      <trkpt lat="49.24306" lon="1.26278">
        <ele>40.016</ele>
        <time>2017-03-31T16:44:06Z</time>
      </trkpt>
      <trkpt lat="49.24504" lon="1.26562">
        <ele>36.97</ele>
        <time>2017-03-31T16:44:26Z</time>
      </trkpt>
      <trkpt lat="49.24524" lon="1.26581">
        <ele>34.387</ele>
        <time>2017-03-31T16:44:46Z</time>
      </trkpt>
      <trkpt lat="49.24544" lon="1.26585">
        <ele>32.683</ele>
        <time>2017-03-31T16:45:06Z</time>
      </trkpt>
      <trkpt lat="49.24565" lon="1.26575">
        <ele>31.611</ele>
        <time>2017-03-31T16:45:26Z</time>
      </trkpt>
      <trkpt lat="49.24668" lon="1.26458">
        <ele>25.858</ele>
        <time>2017-03-31T16:45:46Z</time>
      </trkpt>
      <trkpt lat="49.24689" lon="1.26446">
        <ele>22.452</ele>
        <time>2017-03-31T16:46:06Z</time>
      </trkpt>
      <trkpt lat="49.24715" lon="1.26451">
        <ele>18.517</ele>
        <time>2017-03-31T16:46:26Z</time>
      </trkpt>
      <trkpt lat="49.24766" lon="1.26506">
        <ele>17.408</ele>
        <time>2017-03-31T16:46:46Z</time>
      </trkpt>
      <trkpt lat="49.24817" lon="1.26564">
        <ele>22.929</ele>
        <time>2017-03-31T16:47:06Z</time>
      </trkpt>
      <trkpt lat="49.2488" lon="1.26627">
        <ele>28.741</ele>
        <time>2017-03-31T16:47:26Z</time>
      </trkpt>
      <trkpt lat="49.25019" lon="1.26713">
        <ele>24.45</ele>
        <time>2017-03-31T16:47:46Z</time>
      </trkpt>
      <trkpt lat="49.25084" lon="1.26738">
        <ele>20.377</ele>
        <time>2017-03-31T16:48:06Z</time>
      </trkpt>
      <trkpt lat="49.25304" lon="1.26885">
        <ele>18.451</ele>
        <time>2017-03-31T16:48:26Z</time>
      </trkpt>
      <trkpt lat="49.25381" lon="1.26947">
        <ele>17.778</ele>
        <time>2017-03-31T16:48:46Z</time>
      </trkpt>
      <trkpt lat="49.2544" lon="1.27012">
        <ele>13.934</ele>
        <time>2017-03-31T16:49:06Z</time>
      </trkpt>
      <trkpt lat="49.25476" lon="1.27017">
        <ele>11.952</ele>
        <time>2017-03-31T16:49:26Z</time>
      </trkpt>
      <trkpt lat="49.25508" lon="1.27036">
        <ele>12.384</ele>
        <time>2017-03-31T16:49:46Z</time>
      </trkpt>
      <trkpt lat="49.25545" lon="1.27045">
        <ele>12.607</ele>
        <time>2017-03-31T16:50:06Z</time>
      </trkpt>
      <trkpt lat="49.25603" lon="1.27043">
        <ele>13.317</ele>
        <time>2017-03-31T16:50:26Z</time>
      </trkpt>
      <trkpt lat="49.25596" lon="1.27106">
        <ele>16.508</ele>
        <time>2017-03-31T16:50:46Z</time>
      </trkpt>
      <trkpt lat="49.25602" lon="1.27142">
        <ele>20.462</ele>
        <time>2017-03-31T16:51:06Z</time>
      </trkpt>
      <trkpt lat="49.25621" lon="1.27192">
        <ele>24.874</ele>
        <time>2017-03-31T16:51:26Z</time>
      </trkpt>
      <trkpt lat="49.25632" lon="1.27254">
        <ele>27.493</ele>
        <time>2017-03-31T16:51:46Z</time>
      </trkpt>
      <trkpt lat="49.25649" lon="1.2726">
        <ele>32.07</ele>
        <time>2017-03-31T16:52:06Z</time>
      </trkpt>
      <trkpt lat="49.25659" lon="1.2728">
        <ele>35.274</ele>
        <time>2017-03-31T16:52:26Z</time>
      </trkpt>
      <trkpt lat="49.25671" lon="1.27272">
        <ele>37.691</ele>
        <time>2017-03-31T16:52:46Z</time>
      </trkpt>
      <trkpt lat="49.25747" lon="1.27228">
        <ele>48.697</ele>
        <time>2017-03-31T16:53:06Z</time>
      </trkpt>
      <trkpt lat="49.25779" lon="1.27216">
        <ele>53.115</ele>
        <time>2017-03-31T16:53:26Z</time>
      </trkpt>
      <trkpt lat="49.25788" lon="1.27222">
        <ele>53.421</ele>
        <time>2017-03-31T16:53:46Z</time>
      </trkpt>
      <trkpt lat="49.25806" lon="1.27287">
        <ele>52.041</ele>
        <time>2017-03-31T16:54:06Z</time>
      </trkpt>
      <trkpt lat="49.25901" lon="1.27567">
        <ele>53.305</ele>
        <time>2017-03-31T16:54:26Z</time>
      </trkpt>
      <trkpt lat="49.25936" lon="1.27693">
        <ele>47.108</ele>
        <time>2017-03-31T16:54:46Z</time>
      </trkpt>
      <trkpt lat="49.25951" lon="1.27716">
        <ele>46.576</ele>
        <time>2017-03-31T16:55:06Z</time>
      </trkpt>
      <trkpt lat="49.25975" lon="1.27734">
        <ele>46.898</ele>
        <time>2017-03-31T16:55:26Z</time>
      </trkpt>
      <trkpt lat="49.26011" lon="1.27747">
        <ele>49.077</ele>
        <time>2017-03-31T16:55:46Z</time>
      </trkpt>
      <trkpt lat="49.26033" lon="1.27704">
        <ele>51.764</ele>
        <time>2017-03-31T16:56:06Z</time>
      </trkpt>
      <trkpt lat="49.26055" lon="1.2767">
        <ele>52.038</ele>
        <time>2017-03-31T16:56:26Z</time>
      </trkpt>
      <trkpt lat="49.26133" lon="1.27588">
        <ele>56.965</ele>
        <time>2017-03-31T16:56:46Z</time>
      </trkpt>
      <trkpt lat="49.26158" lon="1.27535">
        <ele>59.921</ele>
        <time>2017-03-31T16:57:06Z</time>
      </trkpt>
      <trkpt lat="49.26198" lon="1.27392">
        <ele>60.339</ele>
        <time>2017-03-31T16:57:26Z</time>
      </trkpt>
      <trkpt lat="49.26219" lon="1.27354">
        <ele>62.283</ele>
        <time>2017-03-31T16:57:46Z</time>
      </trkpt>
      <trkpt lat="49.26241" lon="1.27328">
        <ele>63.825</ele>
        <time>2017-03-31T16:58:06Z</time>
      </trkpt>
      <trkpt lat="49.26265" lon="1.2731">
        <ele>65.917</ele>
        <time>2017-03-31T16:58:26Z</time>
      </trkpt>
      <trkpt lat="49.26289" lon="1.273">
        <ele>67.408</ele>
        <time>2017-03-31T16:58:46Z</time>
      </trkpt>
      <trkpt lat="49.26463" lon="1.27252">
        <ele>76.792</ele>
        <time>2017-03-31T16:59:06Z</time>
      </trkpt>
      <trkpt lat="49.26537" lon="1.27245">
        <ele>81.784</ele>
        <time>2017-03-31T16:59:26Z</time>
      </trkpt>
      <trkpt lat="49.26597" lon="1.27251">
        <ele>85.563</ele>
        <time>2017-03-31T16:59:46Z</time>
      </trkpt>
      <trkpt lat="49.26654" lon="1.27271">
        <ele>86.87</ele>
        <time>2017-03-31T17:00:06Z</time>
      </trkpt>
      <trkpt lat="49.26712" lon="1.27306">
        <ele>88.044</ele>
        <time>2017-03-31T17:00:26Z</time>
      </trkpt>
      <trkpt lat="49.26811" lon="1.27379">
        <ele>89.061</ele>
        <time>2017-03-31T17:00:46Z</time>
      </trkpt>
      <trkpt lat="49.2684" lon="1.27411">
        <ele>90.657</ele>
        <time>2017-03-31T17:01:06Z</time>
      </trkpt>
      <trkpt lat="49.26884" lon="1.27515">
        <ele>96.675</ele>
        <time>2017-03-31T17:01:26Z</time>
      </trkpt>
      <trkpt lat="49.2693" lon="1.2761">
        <ele>111.484</ele>
        <time>2017-03-31T17:01:46Z</time>
      </trkpt>
      <trkpt lat="49.27032" lon="1.27684">
        <ele>119.307</ele>
        <time>2017-03-31T17:02:06Z</time>
      </trkpt>
      <trkpt lat="49.27511" lon="1.2801">
        <ele>131.117</ele>
        <time>2017-03-31T17:02:26Z</time>
      </trkpt>
      <trkpt lat="49.27663" lon="1.27558">
        <ele>123.608</ele>
        <time>2017-03-31T17:02:46Z</time>
      </trkpt>
      <trkpt lat="49.27645" lon="1.27498">
        <ele>119.022</ele>
        <time>2017-03-31T17:03:06Z</time>
      </trkpt>
      <trkpt lat="49.2765" lon="1.27457">
        <ele>110.444</ele>
        <time>2017-03-31T17:03:26Z</time>
      </trkpt>
      <trkpt lat="49.27682" lon="1.27406">
        <ele>101.283</ele>
        <time>2017-03-31T17:03:46Z</time>
      </trkpt>
      <trkpt lat="49.27691" lon="1.2737">
        <ele>99.16</ele>
        <time>2017-03-31T17:04:06Z</time>
      </trkpt>
      <trkpt lat="49.27687" lon="1.27356">
        <ele>98.064</ele>
        <time>2017-03-31T17:04:26Z</time>
      </trkpt>
      <trkpt lat="49.27655" lon="1.27333">
        <ele>91.651</ele>
        <time>2017-03-31T17:04:46Z</time>
      </trkpt>
      <trkpt lat="49.2764" lon="1.2731">
        <ele>84.057</ele>
        <time>2017-03-31T17:05:06Z</time>
      </trkpt>
      <trkpt lat="49.27616" lon="1.27233">
        <ele>53.045</ele>
        <time>2017-03-31T17:05:26Z</time>
      </trkpt>
      <trkpt lat="49.27606" lon="1.27229">
        <ele>49.399</ele>
        <time>2017-03-31T17:05:46Z</time>
      </trkpt>
      <trkpt lat="49.27601" lon="1.27217">
        <ele>44.207</ele>
        <time>2017-03-31T17:06:06Z</time>
      </trkpt>
      <trkpt lat="49.27607" lon="1.27206">
        <ele>41.427</ele>
        <time>2017-03-31T17:06:26Z</time>
      </trkpt>
      <trkpt lat="49.27642" lon="1.27205">
        <ele>45.908</ele>
        <time>2017-03-31T17:06:46Z</time>
      </trkpt>
      <trkpt lat="49.27658" lon="1.27206">
        <ele>48.733</ele>
        <time>2017-03-31T17:07:06Z</time>
      </trkpt>
      <trkpt lat="49.27686" lon="1.27202">
        <ele>49.075</ele>
        <time>2017-03-31T17:07:26Z</time>
      </trkpt>
      <trkpt lat="49.27727" lon="1.27202">
        <ele>46.454</ele>
        <time>2017-03-31T17:07:46Z</time>
      </trkpt>
      <trkpt lat="49.27786" lon="1.27198">
        <ele>36.861</ele>
        <time>2017-03-31T17:08:06Z</time>
      </trkpt>
      <trkpt lat="49.27852" lon="1.27173">
        <ele>26.615</ele>
        <time>2017-03-31T17:08:26Z</time>
      </trkpt>
      <trkpt lat="49.27862" lon="1.27171">
        <ele>27.122</ele>
        <time>2017-03-31T17:08:46Z</time>
      </trkpt>
      <trkpt lat="49.27876" lon="1.2716">
        <ele>25.778</ele>
        <time>2017-03-31T17:09:06Z</time>
      </trkpt>
      <trkpt lat="49.27892" lon="1.27158">
        <ele>26.766</ele>
        <time>2017-03-31T17:09:26Z</time>
      </trkpt>
      <trkpt lat="49.27905" lon="1.27153">
        <ele>27.124</ele>
        <time>2017-03-31T17:09:46Z</time>
      </trkpt>
      <trkpt lat="49.27919" lon="1.27156">
        <ele>30.004</ele>
        <time>2017-03-31T17:10:06Z</time>
      </trkpt>
      <trkpt lat="49.27939" lon="1.2715">
        <ele>31.414</ele>
        <time>2017-03-31T17:10:26Z</time>
      </trkpt>
      <trkpt lat="49.27978" lon="1.27153">
        <ele>35.508</ele>
        <time>2017-03-31T17:10:46Z</time>
      </trkpt>
      <trkpt lat="49.28041" lon="1.27154">
        <ele>31.266</ele>
        <time>2017-03-31T17:11:06Z</time>
      </trkpt>
      <trkpt lat="49.28073" lon="1.27145">
        <ele>29.688</ele>
        <time>2017-03-31T17:11:26Z</time>
      </trkpt>
      <trkpt lat="49.28079" lon="1.27149">
        <ele>30.867</ele>
        <time>2017-03-31T17:11:46Z</time>
      </trkpt>
      <trkpt lat="49.28083" lon="1.27165">
        <ele>34.514</ele>
        <time>2017-03-31T17:12:06Z</time>
      </trkpt>
      <trkpt lat="49.28102" lon="1.27177">
        <ele>42.478</ele>
        <time>2017-03-31T17:12:26Z</time>
      </trkpt>
      <trkpt lat="49.28111" lon="1.27172">
        <ele>44.075</ele>
        <time>2017-03-31T17:12:46Z</time>
      </trkpt>
      <trkpt lat="49.28154" lon="1.27201">
        <ele>64.541</ele>
        <time>2017-03-31T17:13:06Z</time>
      </trkpt>
      <trkpt lat="49.28183" lon="1.27222">
        <ele>78.619</ele>
        <time>2017-03-31T17:13:26Z</time>
      </trkpt>
      <trkpt lat="49.28206" lon="1.27222">
        <ele>85.037</ele>
        <time>2017-03-31T17:13:46Z</time>
      </trkpt>
      <trkpt lat="49.28215" lon="1.27216">
        <ele>84.649</ele>
        <time>2017-03-31T17:14:06Z</time>
      </trkpt>
      <trkpt lat="49.28245" lon="1.27257">
        <ele>104.513</ele>
        <time>2017-03-31T17:14:26Z</time>
      </trkpt>
      <trkpt lat="49.2825" lon="1.27271">
        <ele>108.608</ele>
        <time>2017-03-31T17:14:46Z</time>
      </trkpt>
      <trkpt lat="49.28259" lon="1.27267">
        <ele>107.167</ele>
        <time>2017-03-31T17:15:06Z</time>
      </trkpt>
      <trkpt lat="49.28265" lon="1.27256">
        <ele>104.659</ele>
        <time>2017-03-31T17:15:26Z</time>
      </trkpt>
      <trkpt lat="49.28322" lon="1.27179">
        <ele>79.078</ele>
        <time>2017-03-31T17:15:46Z</time>
      </trkpt>
      <trkpt lat="49.28335" lon="1.27183">
        <ele>80.235</ele>
        <time>2017-03-31T17:16:06Z</time>
      </trkpt>
      <trkpt lat="49.28347" lon="1.27173">
        <ele>74.459</ele>
        <time>2017-03-31T17:16:26Z</time>
      </trkpt>
      <trkpt lat="49.28356" lon="1.27167">
        <ele>70.376</ele>
        <time>2017-03-31T17:16:46Z</time>
      </trkpt>
      <trkpt lat="49.28408" lon="1.27261">
        <ele>64.662</ele>
        <time>2017-03-31T17:17:06Z</time>
      </trkpt>
      <trkpt lat="49.28484" lon="1.27128">
        <ele>39.84</ele>
        <time>2017-03-31T17:17:26Z</time>
      </trkpt>
      <trkpt lat="49.28485" lon="1.27115">
        <ele>37.595</ele>
        <time>2017-03-31T17:17:46Z</time>
      </trkpt>
      <trkpt lat="49.28526" lon="1.27056">
        <ele>20.349</ele>
        <time>2017-03-31T17:18:06Z</time>
      </trkpt>
      <trkpt lat="49.28547" lon="1.27033">
        <ele>18.223</ele>
        <time>2017-03-31T17:18:26Z</time>
      </trkpt>
      <trkpt lat="49.28591" lon="1.27028">
        <ele>19.508</ele>
        <time>2017-03-31T17:18:46Z</time>
      </trkpt>
      <trkpt lat="49.28626" lon="1.27001">
        <ele>18.523</ele>
        <time>2017-03-31T17:19:06Z</time>
      </trkpt>
      <trkpt lat="49.28645" lon="1.27181">
        <ele>27.555</ele>
        <time>2017-03-31T17:19:26Z</time>
      </trkpt>
      <trkpt lat="49.28643" lon="1.2727">
        <ele>33.854</ele>
        <time>2017-03-31T17:19:46Z</time>
      </trkpt>
      <trkpt lat="49.28671" lon="1.27439">
        <ele>38.071</ele>
        <time>2017-03-31T17:20:06Z</time>
      </trkpt>
      <trkpt lat="49.28732" lon="1.27465">
        <ele>44.465</ele>
        <time>2017-03-31T17:20:26Z</time>
      </trkpt>
      <trkpt lat="49.28781" lon="1.27481">
        <ele>57.222</ele>
        <time>2017-03-31T17:20:46Z</time>
      </trkpt>
      <trkpt lat="49.2879" lon="1.27492">
        <ele>59.378</ele>
        <time>2017-03-31T17:21:06Z</time>
      </trkpt>
      <trkpt lat="49.28865" lon="1.27544">
        <ele>75.996</ele>
        <time>2017-03-31T17:21:26Z</time>
      </trkpt>
      <trkpt lat="49.28878" lon="1.27557">
        <ele>77.836</ele>
        <time>2017-03-31T17:21:46Z</time>
      </trkpt>
      <trkpt lat="49.28903" lon="1.27574">
        <ele>83.217</ele>
        <time>2017-03-31T17:22:06Z</time>
      </trkpt>
      <trkpt lat="49.28932" lon="1.27584">
        <ele>88.818</ele>
        <time>2017-03-31T17:22:26Z</time>
      </trkpt>
      <trkpt lat="49.28956" lon="1.27575">
        <ele>96.308</ele>
        <time>2017-03-31T17:22:46Z</time>
      </trkpt>
      <trkpt lat="49.28975" lon="1.27562">
        <ele>103.947</ele>
        <time>2017-03-31T17:23:06Z</time>
      </trkpt>
      <trkpt lat="49.29007" lon="1.2756">
        <ele>111.829</ele>
        <time>2017-03-31T17:23:26Z</time>
      </trkpt>
      <trkpt lat="49.29011" lon="1.27573">
        <ele>110.438</ele>
        <time>2017-03-31T17:23:46Z</time>
      </trkpt>
      <trkpt lat="49.29012" lon="1.27588">
        <ele>108.365</ele>
        <time>2017-03-31T17:24:06Z</time>
      </trkpt>
      <trkpt lat="49.29025" lon="1.27609">
        <ele>108.599</ele>
        <time>2017-03-31T17:24:26Z</time>
      </trkpt>
      <trkpt lat="49.29095" lon="1.27578">
        <ele>131.756</ele>
        <time>2017-03-31T17:24:46Z</time>
      </trkpt>
      <trkpt lat="49.29114" lon="1.2761">
        <ele>133.692</ele>
        <time>2017-03-31T17:25:06Z</time>
      </trkpt>
      <trkpt lat="49.29115" lon="1.27661">
        <ele>132.28</ele>
        <time>2017-03-31T17:25:26Z</time>
      </trkpt>
      <trkpt lat="49.2912" lon="1.27671">
        <ele>133.179</ele>
        <time>2017-03-31T17:25:46Z</time>
      </trkpt>
      <trkpt lat="49.2913" lon="1.27663">
        <ele>136.305</ele>
        <time>2017-03-31T17:26:06Z</time>
      </trkpt>
      <trkpt lat="49.29141" lon="1.27612">
        <ele>139.525</ele>
        <time>2017-03-31T17:26:26Z</time>
      </trkpt>
      <trkpt lat="49.29154" lon="1.27588">
        <ele>144.008</ele>
        <time>2017-03-31T17:26:46Z</time>
      </trkpt>
      <trkpt lat="49.29178" lon="1.27569">
        <ele>148.841</ele>
        <time>2017-03-31T17:27:06Z</time>
      </trkpt>
      <trkpt lat="49.29246" lon="1.27557">
        <ele>150.383</ele>
        <time>2017-03-31T17:27:26Z</time>
      </trkpt>
      <trkpt lat="49.29268" lon="1.27548">
        <ele>147.352</ele>
        <time>2017-03-31T17:27:46Z</time>
      </trkpt>
      <trkpt lat="49.29284" lon="1.2764">
        <ele>148.639</ele>
        <time>2017-03-31T17:28:06Z</time>
      </trkpt>
      <trkpt lat="49.2929" lon="1.27625">
        <ele>148.493</ele>
        <time>2017-03-31T17:28:26Z</time>
      </trkpt>
      <trkpt lat="49.29361" lon="1.276">
        <ele>144.06</ele>
        <time>2017-03-31T17:28:46Z</time>
      </trkpt>
      <trkpt lat="49.29365" lon="1.27592">
        <ele>143.946</ele>
        <time>2017-03-31T17:29:06Z</time>
      </trkpt>
      <trkpt lat="49.29373" lon="1.27591">
        <ele>143.644</ele>
        <time>2017-03-31T17:29:26Z</time>
      </trkpt>
      <trkpt lat="49.29415" lon="1.27559">
        <ele>142.113</ele>
        <time>2017-03-31T17:29:46Z</time>
      </trkpt>
      <trkpt lat="49.29551" lon="1.27571">
        <ele>141.043</ele>
        <time>2017-03-31T17:30:06Z</time>
      </trkpt>
      <trkpt lat="49.29606" lon="1.27564">
        <ele>142.107</ele>
        <time>2017-03-31T17:30:26Z</time>
      </trkpt>
      <trkpt lat="49.29646" lon="1.27552">
        <ele>143.408</ele>
        <time>2017-03-31T17:30:46Z</time>
      </trkpt>
      <trkpt lat="49.29624" lon="1.27484">
        <ele>144.955</ele>
        <time>2017-03-31T17:31:06Z</time>
      </trkpt>
      <trkpt lat="49.29616" lon="1.27434">
        <ele>145.627</ele>
        <time>2017-03-31T17:31:26Z</time>
      </trkpt>
      <trkpt lat="49.29614" lon="1.27396">
        <ele>145.496</ele>
        <time>2017-03-31T17:31:46Z</time>
      </trkpt>
      <trkpt lat="49.29618" lon="1.27168">
        <ele>135.043</ele>
        <time>2017-03-31T17:32:06Z</time>
      </trkpt>
      <trkpt lat="49.29637" lon="1.27064">
        <ele>129.227</ele>
        <time>2017-03-31T17:32:26Z</time>
      </trkpt>
      <trkpt lat="49.2963" lon="1.2687">
        <ele>120.264</ele>
        <time>2017-03-31T17:32:46Z</time>
      </trkpt>
      <trkpt lat="49.29627" lon="1.26836">
        <ele>119.86</ele>
        <time>2017-03-31T17:33:06Z</time>
      </trkpt>
      <trkpt lat="49.29627" lon="1.26756">
        <ele>103.728</ele>
        <time>2017-03-31T17:33:26Z</time>
      </trkpt>
      <trkpt lat="49.29663" lon="1.26769">
        <ele>100.735</ele>
        <time>2017-03-31T17:33:46Z</time>
      </trkpt>
      <trkpt lat="49.29718" lon="1.26775">
        <ele>90.586</ele>
        <time>2017-03-31T17:34:06Z</time>
      </trkpt>
      <trkpt lat="49.29761" lon="1.26768">
        <ele>89.814</ele>
        <time>2017-03-31T17:34:26Z</time>
      </trkpt>
      <trkpt lat="49.29846" lon="1.26663">
        <ele>66.008</ele>
        <time>2017-03-31T17:34:46Z</time>
      </trkpt>
      <trkpt lat="49.29877" lon="1.26586">
        <ele>49.867</ele>
        <time>2017-03-31T17:35:06Z</time>
      </trkpt>
      <trkpt lat="49.29906" lon="1.26571">
        <ele>50.559</ele>
        <time>2017-03-31T17:35:26Z</time>
      </trkpt>
      <trkpt lat="49.29963" lon="1.26565">
        <ele>44.048</ele>
        <time>2017-03-31T17:35:46Z</time>
      </trkpt>
      <trkpt lat="49.29994" lon="1.26577">
        <ele>37.085</ele>
        <time>2017-03-31T17:36:06Z</time>
      </trkpt>
      <trkpt lat="49.2998" lon="1.26511">
        <ele>31.779</ele>
        <time>2017-03-31T17:36:26Z</time>
      </trkpt>
      <trkpt lat="49.29992" lon="1.26489">
        <ele>30.436</ele>
        <time>2017-03-31T17:36:46Z</time>
      </trkpt>
      <trkpt lat="49.30004" lon="1.26481">
        <ele>32.112</ele>
        <time>2017-03-31T17:37:06Z</time>
      </trkpt>
      <trkpt lat="49.3001" lon="1.2647">
        <ele>34.31</ele>
        <time>2017-03-31T17:37:26Z</time>
      </trkpt>
      <trkpt lat="49.30022" lon="1.26465">
        <ele>37.973</ele>
        <time>2017-03-31T17:37:46Z</time>
      </trkpt>
      <trkpt lat="49.30037" lon="1.26453">
        <ele>44.785</ele>
        <time>2017-03-31T17:38:06Z</time>
      </trkpt>
      <trkpt lat="49.30048" lon="1.26465">
        <ele>49.813</ele>
        <time>2017-03-31T17:38:26Z</time>
      </trkpt>
      <trkpt lat="49.30062" lon="1.26439">
        <ele>57.108</ele>
        <time>2017-03-31T17:38:46Z</time>
      </trkpt>
      <trkpt lat="49.30103" lon="1.26425">
        <ele>73.491</ele>
        <time>2017-03-31T17:39:06Z</time>
      </trkpt>
      <trkpt lat="49.30108" lon="1.26436">
        <ele>78.473</ele>
        <time>2017-03-31T17:39:26Z</time>
      </trkpt>
      <trkpt lat="49.3013" lon="1.26452">
        <ele>89.982</ele>
        <time>2017-03-31T17:39:46Z</time>
      </trkpt>
      <trkpt lat="49.30134" lon="1.26458">
        <ele>92.099</ele>
        <time>2017-03-31T17:40:06Z</time>
      </trkpt>
      <trkpt lat="49.30143" lon="1.26459">
        <ele>95.993</ele>
        <time>2017-03-31T17:40:26Z</time>
      </trkpt>
      <trkpt lat="49.30146" lon="1.26451">
        <ele>96.55</ele>
        <time>2017-03-31T17:40:46Z</time>
      </trkpt>
      <trkpt lat="49.30163" lon="1.26445">
        <ele>101.776</ele>
        <time>2017-03-31T17:41:06Z</time>
      </trkpt>
      <trkpt lat="49.30177" lon="1.26444">
        <ele>105.314</ele>
        <time>2017-03-31T17:41:26Z</time>
      </trkpt>
      <trkpt lat="49.30189" lon="1.26453">
        <ele>109.589</ele>
        <time>2017-03-31T17:41:46Z</time>
      </trkpt>
      <trkpt lat="49.30202" lon="1.26446">
        <ele>113.006</ele>
        <time>2017-03-31T17:42:06Z</time>
      </trkpt>
      <trkpt lat="49.30211" lon="1.26451">
        <ele>117.226</ele>
        <time>2017-03-31T17:42:26Z</time>
      </trkpt>
      <trkpt lat="49.30215" lon="1.26442">
        <ele>116.308</ele>
        <time>2017-03-31T17:42:46Z</time>
      </trkpt>
      <trkpt lat="49.3027" lon="1.26412">
        <ele>121.342</ele>
        <time>2017-03-31T17:43:06Z</time>
      </trkpt>
      <trkpt lat="49.30298" lon="1.26366">
        <ele>113.994</ele>
        <time>2017-03-31T17:43:26Z</time>
      </trkpt>
      <trkpt lat="49.30377" lon="1.26288">
        <ele>104.473</ele>
        <time>2017-03-31T17:43:46Z</time>
      </trkpt>
      <trkpt lat="49.3046" lon="1.2624">
        <ele>99.06</ele>
        <time>2017-03-31T17:44:06Z</time>
      </trkpt>
      <trkpt lat="49.30476" lon="1.26236">
        <ele>97.884</ele>
        <time>2017-03-31T17:44:26Z</time>
      </trkpt>
      <trkpt lat="49.30509" lon="1.26081">
        <ele>45.991</ele>
        <time>2017-03-31T17:44:46Z</time>
      </trkpt>
      <trkpt lat="49.30518" lon="1.26079">
        <ele>44.827</ele>
        <time>2017-03-31T17:45:06Z</time>
      </trkpt>
      <trkpt lat="49.30538" lon="1.261">
        <ele>46.225</ele>
        <time>2017-03-31T17:45:26Z</time>
      </trkpt>
      <trkpt lat="49.30534" lon="1.26076">
        <ele>42.268</ele>
        <time>2017-03-31T17:45:46Z</time>
      </trkpt>
      <trkpt lat="49.30506" lon="1.25999">
        <ele>27.642</ele>
        <time>2017-03-31T17:46:06Z</time>
      </trkpt>
      <trkpt lat="49.30476" lon="1.26012">
        <ele>28.426</ele>
        <time>2017-03-31T17:46:26Z</time>
      </trkpt>
      <trkpt lat="49.30488" lon="1.25993">
        <ele>25.108</ele>
        <time>2017-03-31T17:46:46Z</time>
      </trkpt>
      <trkpt lat="49.30468" lon="1.25998">
        <ele>23.96</ele>
        <time>2017-03-31T17:47:06Z</time>
      </trkpt>
      <trkpt lat="49.30507" lon="1.25949">
        <ele>20.082</ele>
        <time>2017-03-31T17:47:26Z</time>
      </trkpt>
      <trkpt lat="49.30549" lon="1.25901">
        <ele>19.241</ele>
        <time>2017-03-31T17:47:46Z</time>
      </trkpt>
      <trkpt lat="49.30563" lon="1.25932">
        <ele>22.978</ele>
        <time>2017-03-31T17:48:06Z</time>
      </trkpt>
      <trkpt lat="49.30582" lon="1.25938">
        <ele>26.562</ele>
        <time>2017-03-31T17:48:26Z</time>
      </trkpt>
      <trkpt lat="49.30675" lon="1.25993">
        <ele>63.159</ele>
        <time>2017-03-31T17:48:46Z</time>
      </trkpt>
      <trkpt lat="49.30709" lon="1.26035">
        <ele>79.995</ele>
        <time>2017-03-31T17:49:06Z</time>
      </trkpt>
      <trkpt lat="49.30774" lon="1.26108">
        <ele>107.673</ele>
        <time>2017-03-31T17:49:26Z</time>
      </trkpt>
      <trkpt lat="49.30816" lon="1.26166">
        <ele>119.834</ele>
        <time>2017-03-31T17:49:46Z</time>
      </trkpt>
      <trkpt lat="49.30852" lon="1.26246">
        <ele>127.555</ele>
        <time>2017-03-31T17:50:06Z</time>
      </trkpt>
      <trkpt lat="49.30894" lon="1.26328">
        <ele>141.21</ele>
        <time>2017-03-31T17:50:26Z</time>
      </trkpt>
      <trkpt lat="49.30968" lon="1.26451">
        <ele>143.608</ele>
        <time>2017-03-31T17:50:46Z</time>
      </trkpt>
      <trkpt lat="49.31091" lon="1.26159">
        <ele>143.057</ele>
        <time>2017-03-31T17:51:06Z</time>
      </trkpt>
      <trkpt lat="49.31133" lon="1.25993">
        <ele>143.299</ele>
        <time>2017-03-31T17:51:26Z</time>
      </trkpt>
      <trkpt lat="49.31137" lon="1.25928">
        <ele>145.488</ele>
        <time>2017-03-31T17:51:46Z</time>
      </trkpt>
      <trkpt lat="49.31132" lon="1.25888">
        <ele>145.065</ele>
        <time>2017-03-31T17:52:06Z</time>
      </trkpt>
      <trkpt lat="49.31127" lon="1.25826">
        <ele>143.439</ele>
        <time>2017-03-31T17:52:26Z</time>
      </trkpt>
      <trkpt lat="49.31112" lon="1.25775">
        <ele>138.726</ele>
        <time>2017-03-31T17:52:46Z</time>
      </trkpt>
      <trkpt lat="49.31101" lon="1.25727">
        <ele>134.942</ele>
        <time>2017-03-31T17:53:06Z</time>
      </trkpt>
      <trkpt lat="49.31096" lon="1.25668">
        <ele>127.95</ele>
        <time>2017-03-31T17:53:26Z</time>
      </trkpt>
      <trkpt lat="49.31098" lon="1.25594">
        <ele>118.189</ele>
        <time>2017-03-31T17:53:46Z</time>
      </trkpt>
      <trkpt lat="49.31113" lon="1.25504">
        <ele>105.706</ele>
        <time>2017-03-31T17:54:06Z</time>
      </trkpt>
      <trkpt lat="49.31131" lon="1.25435">
        <ele>95.026</ele>
        <time>2017-03-31T17:54:26Z</time>
      </trkpt>
      <trkpt lat="49.31168" lon="1.25327">
        <ele>81.908</ele>
        <time>2017-03-31T17:54:46Z</time>
      </trkpt>
      <trkpt lat="49.31214" lon="1.25235">
        <ele>57.622</ele>
        <time>2017-03-31T17:55:06Z</time>
      </trkpt>
      <trkpt lat="49.31225" lon="1.25195">
        <ele>51.164</ele>
        <time>2017-03-31T17:55:26Z</time>
      </trkpt>
      <trkpt lat="49.31225" lon="1.25133">
        <ele>46.483</ele>
        <time>2017-03-31T17:55:46Z</time>
      </trkpt>
      <trkpt lat="49.31252" lon="1.25134">
        <ele>48.01</ele>
        <time>2017-03-31T17:56:06Z</time>
      </trkpt>
      <trkpt lat="49.31316" lon="1.25127">
        <ele>64.744</ele>
        <time>2017-03-31T17:56:26Z</time>
      </trkpt>
      <trkpt lat="49.31366" lon="1.25107">
        <ele>84.731</ele>
        <time>2017-03-31T17:56:46Z</time>
      </trkpt>
      <trkpt lat="49.31379" lon="1.25093">
        <ele>91.437</ele>
        <time>2017-03-31T17:57:06Z</time>
      </trkpt>
      <trkpt lat="49.31368" lon="1.25075">
        <ele>89.225</ele>
        <time>2017-03-31T17:57:26Z</time>
      </trkpt>
      <trkpt lat="49.31342" lon="1.25055">
        <ele>82.025</ele>
        <time>2017-03-31T17:57:46Z</time>
      </trkpt>
      <trkpt lat="49.31307" lon="1.25019">
        <ele>73.426</ele>
        <time>2017-03-31T17:58:06Z</time>
      </trkpt>
      <trkpt lat="49.31288" lon="1.24988">
        <ele>71.208</ele>
        <time>2017-03-31T17:58:26Z</time>
      </trkpt>
      <trkpt lat="49.31264" lon="1.24942">
        <ele>65.408</ele>
        <time>2017-03-31T17:58:46Z</time>
      </trkpt>
      <trkpt lat="49.31264" lon="1.24914">
        <ele>63.766</ele>
        <time>2017-03-31T17:59:06Z</time>
      </trkpt>
      <trkpt lat="49.31286" lon="1.24844">
        <ele>65.448</ele>
        <time>2017-03-31T17:59:26Z</time>
      </trkpt>
      <trkpt lat="49.31332" lon="1.24752">
        <ele>68.477</ele>
        <time>2017-03-31T17:59:46Z</time>
      </trkpt>
      <trkpt lat="49.31387" lon="1.24684">
        <ele>77.224</ele>
        <time>2017-03-31T18:00:06Z</time>
      </trkpt>
      <trkpt lat="49.31417" lon="1.24651">
        <ele>76.378</ele>
        <time>2017-03-31T18:00:26Z</time>
      </trkpt>
      <trkpt lat="49.31467" lon="1.24627">
        <ele>72.425</ele>
        <time>2017-03-31T18:00:46Z</time>
      </trkpt>
      <trkpt lat="49.31506" lon="1.24595">
        <ele>71.371</ele>
        <time>2017-03-31T18:01:06Z</time>
      </trkpt>
      <trkpt lat="49.31514" lon="1.24545">
        <ele>70.449</ele>
        <time>2017-03-31T18:01:26Z</time>
      </trkpt>
      <trkpt lat="49.31503" lon="1.24554">
        <ele>66.134</ele>
        <time>2017-03-31T18:01:46Z</time>
      </trkpt>
      <trkpt lat="49.3149" lon="1.24555">
        <ele>63.155</ele>
        <time>2017-03-31T18:02:06Z</time>
      </trkpt>
      <trkpt lat="49.31482" lon="1.24549">
        <ele>61.21</ele>
        <time>2017-03-31T18:02:26Z</time>
      </trkpt>
      <trkpt lat="49.31474" lon="1.24529">
        <ele>57.508</ele>
        <time>2017-03-31T18:02:46Z</time>
      </trkpt>
      <trkpt lat="49.31463" lon="1.24516">
        <ele>54.517</ele>
        <time>2017-03-31T18:03:06Z</time>
      </trkpt>
      <trkpt lat="49.31432" lon="1.24464">
        <ele>40.339</ele>
        <time>2017-03-31T18:03:26Z</time>
      </trkpt>
      <trkpt lat="49.31422" lon="1.24457">
        <ele>35.628</ele>
        <time>2017-03-31T18:03:46Z</time>
      </trkpt>
      <trkpt lat="49.31412" lon="1.24431">
        <ele>29.185</ele>
        <time>2017-03-31T18:04:06Z</time>
      </trkpt>
      <trkpt lat="49.31407" lon="1.24388">
        <ele>23.859</ele>
        <time>2017-03-31T18:04:26Z</time>
      </trkpt>
      <trkpt lat="49.31411" lon="1.24357">
        <ele>22.626</ele>
        <time>2017-03-31T18:04:46Z</time>
      </trkpt>
      <trkpt lat="49.31436" lon="1.24321">
        <ele>21.442</ele>
        <time>2017-03-31T18:05:06Z</time>
      </trkpt>
      <trkpt lat="49.31245" lon="1.24019">
        <ele>7.57</ele>
        <time>2017-03-31T18:05:26Z</time>
      </trkpt>
      <trkpt lat="49.31249" lon="1.2395">
        <ele>8.047</ele>
        <time>2017-03-31T18:05:46Z</time>
      </trkpt>
      <trkpt lat="49.31267" lon="1.23867">
        <ele>9.729</ele>
        <time>2017-03-31T18:06:06Z</time>
      </trkpt>
      <trkpt lat="49.31262" lon="1.23795">
        <ele>8.421</ele>
        <time>2017-03-31T18:06:26Z</time>
      </trkpt>
      <trkpt lat="49.31274" lon="1.23606">
        <ele>6.908</ele>
        <time>2017-03-31T18:06:46Z</time>
      </trkpt>
      <trkpt lat="49.31286" lon="1.23555">
        <ele>6.358</ele>
        <time>2017-03-31T18:07:06Z</time>
      </trkpt>
      <trkpt lat="49.31285" lon="1.2345">
        <ele>5.04</ele>
        <time>2017-03-31T18:07:26Z</time>
      </trkpt>
      <trkpt lat="49.31268" lon="1.23251">
        <ele>5.049</ele>
        <time>2017-03-31T18:07:46Z</time>
      </trkpt>
      <trkpt lat="49.31281" lon="1.23191">
        <ele>6.626</ele>
        <time>2017-03-31T18:08:06Z</time>
      </trkpt>
      <trkpt lat="49.31323" lon="1.23148">
        <ele>11.55</ele>
        <time>2017-03-31T18:08:26Z</time>
      </trkpt>
      <trkpt lat="49.31361" lon="1.23103">
        <ele>9.757</ele>
        <time>2017-03-31T18:08:46Z</time>
      </trkpt>
      <trkpt lat="49.31386" lon="1.23057">
        <ele>8.033</ele>
        <time>2017-03-31T18:09:06Z</time>
      </trkpt>
      <trkpt lat="49.31394" lon="1.23049">
        <ele>7.811</ele>
        <time>2017-03-31T18:09:26Z</time>
      </trkpt>
      <trkpt lat="49.31395" lon="1.23031">
        <ele>7.328</ele>
        <time>2017-03-31T18:09:46Z</time>
      </trkpt>
      <trkpt lat="49.31518" lon="1.22762">
        <ele>7.489</ele>
        <time>2017-03-31T18:10:06Z</time>
      </trkpt>
      <trkpt lat="49.31506" lon="1.2276">
        <ele>7.817</ele>
        <time>2017-03-31T18:10:26Z</time>
      </trkpt>
      <trkpt lat="49.31439" lon="1.22686">
        <ele>7.708</ele>
        <time>2017-03-31T18:10:46Z</time>
      </trkpt>
      <trkpt lat="49.31322" lon="1.22564">
        <ele>7.056</ele>
        <time>2017-03-31T18:11:06Z</time>
      </trkpt>
      <trkpt lat="49.31206" lon="1.22455">
        <ele>8.458</ele>
        <time>2017-03-31T18:11:26Z</time>
      </trkpt>
      <trkpt lat="49.31151" lon="1.22396">
        <ele>6.157</ele>
        <time>2017-03-31T18:11:46Z</time>
      </trkpt>
      <trkpt lat="49.31139" lon="1.22366">
        <ele>5.224</ele>
        <time>2017-03-31T18:12:06Z</time>
      </trkpt>
      <trkpt lat="49.31113" lon="1.22175">
        <ele>6.798</ele>
        <time>2017-03-31T18:12:26Z</time>
      </trkpt>
      <trkpt lat="49.31098" lon="1.21902">
        <ele>6.065</ele>
        <time>2017-03-31T18:12:46Z</time>
      </trkpt>
      <trkpt lat="49.31097" lon="1.21781">
        <ele>6.031</ele>
        <time>2017-03-31T18:13:06Z</time>
      </trkpt>
      <trkpt lat="49.31098" lon="1.21695">
        <ele>7.049</ele>
        <time>2017-03-31T18:13:26Z</time>
      </trkpt>
      <trkpt lat="49.31103" lon="1.21592">
        <ele>7.136</ele>
        <time>2017-03-31T18:13:46Z</time>
      </trkpt>
      <trkpt lat="49.31129" lon="1.21513">
        <ele>7.817</ele>
        <time>2017-03-31T18:14:06Z</time>
      </trkpt>
      <trkpt lat="49.31149" lon="1.21423">
        <ele>7.618</ele>
        <time>2017-03-31T18:14:26Z</time>
      </trkpt>
      <trkpt lat="49.31165" lon="1.21335">
        <ele>10.808</ele>
        <time>2017-03-31T18:14:46Z</time>
      </trkpt>
      <trkpt lat="49.31179" lon="1.21207">
        <ele>8.137</ele>
        <time>2017-03-31T18:15:06Z</time>
      </trkpt>
      <trkpt lat="49.31153" lon="1.21091">
        <ele>7.599</ele>
        <time>2017-03-31T18:15:26Z</time>
      </trkpt>
      <trkpt lat="49.31152" lon="1.21059">
        <ele>8.488</ele>
        <time>2017-03-31T18:15:46Z</time>
      </trkpt>
      <trkpt lat="49.3116" lon="1.21044">
        <ele>9.265</ele>
        <time>2017-03-31T18:16:06Z</time>
      </trkpt>
      <trkpt lat="49.31148" lon="1.21031">
        <ele>9.259</ele>
        <time>2017-03-31T18:16:26Z</time>
      </trkpt>
      <trkpt lat="49.31136" lon="1.21004">
        <ele>9.776</ele>
        <time>2017-03-31T18:16:46Z</time>
      </trkpt>
      <trkpt lat="49.31125" lon="1.2094">
        <ele>8.552</ele>
        <time>2017-03-31T18:17:06Z</time>
      </trkpt>
      <trkpt lat="49.31127" lon="1.20912">
        <ele>8.66</ele>
        <time>2017-03-31T18:17:26Z</time>
      </trkpt>
      <trkpt lat="49.3112" lon="1.20892">
        <ele>8.389</ele>
        <time>2017-03-31T18:17:46Z</time>
      </trkpt>
      <trkpt lat="49.31094" lon="1.20755">
        <ele>6.806</ele>
        <time>2017-03-31T18:18:06Z</time>
      </trkpt>
      <trkpt lat="49.31085" lon="1.20632">
        <ele>7.126</ele>
        <time>2017-03-31T18:18:26Z</time>
      </trkpt>
      <trkpt lat="49.31089" lon="1.20593">
        <ele>7.208</ele>
        <time>2017-03-31T18:18:46Z</time>
      </trkpt>
      <trkpt lat="49.31082" lon="1.20575">
        <ele>7.032</ele>
        <time>2017-03-31T18:19:06Z</time>
      </trkpt>
      <trkpt lat="49.31067" lon="1.2043">
        <ele>8.684</ele>
        <time>2017-03-31T18:19:26Z</time>
      </trkpt>
      <trkpt lat="49.31056" lon="1.20424">
        <ele>8.083</ele>
        <time>2017-03-31T18:19:46Z</time>
      </trkpt>
      <trkpt lat="49.31047" lon="1.20411">
        <ele>7.82</ele>
        <time>2017-03-31T18:20:06Z</time>
      </trkpt>
      <trkpt lat="49.31038" lon="1.20333">
        <ele>9.054</ele>
        <time>2017-03-31T18:20:26Z</time>
      </trkpt>
      <trkpt lat="49.31023" lon="1.2024">
        <ele>6.311</ele>
        <time>2017-03-31T18:20:46Z</time>
      </trkpt>
      <trkpt lat="49.31002" lon="1.20137">
        <ele>6.137</ele>
        <time>2017-03-31T18:21:06Z</time>
      </trkpt>
      <trkpt lat="49.30985" lon="1.19974">
        <ele>9.665</ele>
        <time>2017-03-31T18:21:26Z</time>
      </trkpt>
      <trkpt lat="49.31077" lon="1.20036">
        <ele>12.532</ele>
        <time>2017-03-31T18:21:46Z</time>
      </trkpt>
      <trkpt lat="49.31072" lon="1.20074">
        <ele>10.992</ele>
        <time>2017-03-31T18:22:06Z</time>
      </trkpt>
      <trkpt lat="49.31269" lon="1.2012">
        <ele>12.711</ele>
        <time>2017-03-31T18:22:26Z</time>
      </trkpt>
      <trkpt lat="49.31352" lon="1.20133">
        <ele>12.208</ele>
        <time>2017-03-31T18:22:46Z</time>
      </trkpt>
      <trkpt lat="49.31551" lon="1.20095">
        <ele>10.547</ele>
        <time>2017-03-31T18:23:06Z</time>
      </trkpt>
      <trkpt lat="49.31604" lon="1.20077">
        <ele>11.539</ele>
        <time>2017-03-31T18:23:26Z</time>
      </trkpt>
      <trkpt lat="49.31678" lon="1.20025">
        <ele>13.448</ele>
        <time>2017-03-31T18:23:46Z</time>
      </trkpt>
      <trkpt lat="49.31695" lon="1.20018">
        <ele>14.045</ele>
        <time>2017-03-31T18:24:06Z</time>
      </trkpt>
      <trkpt lat="49.31709" lon="1.20021">
        <ele>14.059</ele>
        <time>2017-03-31T18:24:26Z</time>
      </trkpt>
      <trkpt lat="49.31744" lon="1.20015">
        <ele>13.186</ele>
        <time>2017-03-31T18:24:46Z</time>
      </trkpt>
      <trkpt lat="49.31895" lon="1.20016">
        <ele>11.232</ele>
        <time>2017-03-31T18:25:06Z</time>
      </trkpt>
      <trkpt lat="49.31912" lon="1.20012">
        <ele>12.36</ele>
        <time>2017-03-31T18:25:26Z</time>
      </trkpt>
      <trkpt lat="49.32045" lon="1.20021">
        <ele>12.733</ele>
        <time>2017-03-31T18:25:46Z</time>
      </trkpt>
      <trkpt lat="49.32144" lon="1.19995">
        <ele>17.023</ele>
        <time>2017-03-31T18:26:06Z</time>
      </trkpt>
      <trkpt lat="49.32277" lon="1.19977">
        <ele>22.015</ele>
        <time>2017-03-31T18:26:26Z</time>
      </trkpt>
      <trkpt lat="49.32372" lon="1.19975">
        <ele>24.408</ele>
        <time>2017-03-31T18:26:46Z</time>
      </trkpt>
      <trkpt lat="49.32353" lon="1.19881">
        <ele>22.967</ele>
        <time>2017-03-31T18:27:06Z</time>
      </trkpt>
      <trkpt lat="49.32328" lon="1.198">
        <ele>22.569</ele>
        <time>2017-03-31T18:27:26Z</time>
      </trkpt>
      <trkpt lat="49.32336" lon="1.19722">
        <ele>23.248</ele>
        <time>2017-03-31T18:27:46Z</time>
      </trkpt>
      <trkpt lat="49.32404" lon="1.19713">
        <ele>27.685</ele>
        <time>2017-03-31T18:28:06Z</time>
      </trkpt>
      <trkpt lat="49.32452" lon="1.19713">
        <ele>29.529</ele>
        <time>2017-03-31T18:28:26Z</time>
      </trkpt>
      <trkpt lat="49.32488" lon="1.19717">
        <ele>31.616</ele>
        <time>2017-03-31T18:28:46Z</time>
      </trkpt>
      <trkpt lat="49.32614" lon="1.19751">
        <ele>40.352</ele>
        <time>2017-03-31T18:29:06Z</time>
      </trkpt>
      <trkpt lat="49.32633" lon="1.19749">
        <ele>42.37</ele>
        <time>2017-03-31T18:29:26Z</time>
      </trkpt>
      <trkpt lat="49.32741" lon="1.19657">
        <ele>56.813</ele>
        <time>2017-03-31T18:29:46Z</time>
      </trkpt>
      <trkpt lat="49.32847" lon="1.19571">
        <ele>65.243</ele>
        <time>2017-03-31T18:30:06Z</time>
      </trkpt>
      <trkpt lat="49.32869" lon="1.19545">
        <ele>66.407</ele>
        <time>2017-03-31T18:30:26Z</time>
      </trkpt>
      <trkpt lat="49.32869" lon="1.19527">
        <ele>66.608</ele>
        <time>2017-03-31T18:30:46Z</time>
      </trkpt>
      <trkpt lat="49.3283" lon="1.19408">
        <ele>64.055</ele>
        <time>2017-03-31T18:31:06Z</time>
      </trkpt>
      <trkpt lat="49.32815" lon="1.19351">
        <ele>64.477</ele>
        <time>2017-03-31T18:31:26Z</time>
      </trkpt>
      <trkpt lat="49.32825" lon="1.19345">
        <ele>66.136</ele>
        <time>2017-03-31T18:31:46Z</time>
      </trkpt>
      <trkpt lat="49.33136" lon="1.18304">
        <ele>118.483</ele>
        <time>2017-03-31T18:32:06Z</time>
      </trkpt>
      <trkpt lat="49.3316" lon="1.18213">
        <ele>121.987</ele>
        <time>2017-03-31T18:32:26Z</time>
      </trkpt>
      <trkpt lat="49.33225" lon="1.18007">
        <ele>121.064</ele>
        <time>2017-03-31T18:32:46Z</time>
      </trkpt>
      <trkpt lat="49.33298" lon="1.17765">
        <ele>122.82</ele>
        <time>2017-03-31T18:33:06Z</time>
      </trkpt>
      <trkpt lat="49.33101" lon="1.17726">
        <ele>112.478</ele>
        <time>2017-03-31T18:33:26Z</time>
      </trkpt>
      <trkpt lat="49.33077" lon="1.17716">
        <ele>110.134</ele>
        <time>2017-03-31T18:33:46Z</time>
      </trkpt>
      <trkpt lat="49.33022" lon="1.17662">
        <ele>106.855</ele>
        <time>2017-03-31T18:34:06Z</time>
      </trkpt>
      <trkpt lat="49.32948" lon="1.17616">
        <ele>107.71</ele>
        <time>2017-03-31T18:34:26Z</time>
      </trkpt>
      <trkpt lat="49.32896" lon="1.17593">
        <ele>109.608</ele>
        <time>2017-03-31T18:34:46Z</time>
      </trkpt>
      <trkpt lat="49.3287" lon="1.17593">
        <ele>110.317</ele>
        <time>2017-03-31T18:35:06Z</time>
      </trkpt>
      <trkpt lat="49.32715" lon="1.17657">
        <ele>116.789</ele>
        <time>2017-03-31T18:35:26Z</time>
      </trkpt>
      <trkpt lat="49.32612" lon="1.17761">
        <ele>113.188</ele>
        <time>2017-03-31T18:35:46Z</time>
      </trkpt>
      <trkpt lat="49.32596" lon="1.17765">
        <ele>110.595</ele>
        <time>2017-03-31T18:36:06Z</time>
      </trkpt>
      <trkpt lat="49.32575" lon="1.17758">
        <ele>106.599</ele>
        <time>2017-03-31T18:36:26Z</time>
      </trkpt>
      <trkpt lat="49.32554" lon="1.17724">
        <ele>103.596</ele>
        <time>2017-03-31T18:36:46Z</time>
      </trkpt>
      <trkpt lat="49.3254" lon="1.17704">
        <ele>98.962</ele>
        <time>2017-03-31T18:37:06Z</time>
      </trkpt>
      <trkpt lat="49.32466" lon="1.17653">
        <ele>82.37</ele>
        <time>2017-03-31T18:37:26Z</time>
      </trkpt>
      <trkpt lat="49.32414" lon="1.17576">
        <ele>72.765</ele>
        <time>2017-03-31T18:37:46Z</time>
      </trkpt>
      <trkpt lat="49.32379" lon="1.17508">
        <ele>61.768</ele>
        <time>2017-03-31T18:38:06Z</time>
      </trkpt>
      <trkpt lat="49.32347" lon="1.17499">
        <ele>52.914</ele>
        <time>2017-03-31T18:38:26Z</time>
      </trkpt>
      <trkpt lat="49.32243" lon="1.17504">
        <ele>35.908</ele>
        <time>2017-03-31T18:38:46Z</time>
      </trkpt>
      <trkpt lat="49.32184" lon="1.17512">
        <ele>25.05</ele>
        <time>2017-03-31T18:39:06Z</time>
      </trkpt>
      <trkpt lat="49.32152" lon="1.17297">
        <ele>19.222</ele>
        <time>2017-03-31T18:39:26Z</time>
      </trkpt>
      <trkpt lat="49.32132" lon="1.17229">
        <ele>20.011</ele>
        <time>2017-03-31T18:39:46Z</time>
      </trkpt>
      <trkpt lat="49.32121" lon="1.17164">
        <ele>22.518</ele>
        <time>2017-03-31T18:40:06Z</time>
      </trkpt>
      <trkpt lat="49.32081" lon="1.16963">
        <ele>18.142</ele>
        <time>2017-03-31T18:40:26Z</time>
      </trkpt>
      <trkpt lat="49.3197" lon="1.16986">
        <ele>11.089</ele>
        <time>2017-03-31T18:40:46Z</time>
      </trkpt>
      <trkpt lat="49.31959" lon="1.16923">
        <ele>10.625</ele>
        <time>2017-03-31T18:41:06Z</time>
      </trkpt>
      <trkpt lat="49.31946" lon="1.16789">
        <ele>11.663</ele>
        <time>2017-03-31T18:41:26Z</time>
      </trkpt>
      <trkpt lat="49.31932" lon="1.16655">
        <ele>12.172</ele>
        <time>2017-03-31T18:41:46Z</time>
      </trkpt>
      <trkpt lat="49.31906" lon="1.16186">
        <ele>13.313</ele>
        <time>2017-03-31T18:42:06Z</time>
      </trkpt>
      <trkpt lat="49.31899" lon="1.15919">
        <ele>10.414</ele>
        <time>2017-03-31T18:42:26Z</time>
      </trkpt>
      <trkpt lat="49.31912" lon="1.15918">
        <ele>10.808</ele>
        <time>2017-03-31T18:42:46Z</time>
      </trkpt>
      <trkpt lat="49.3203" lon="1.15939">
        <ele>21.511</ele>
        <time>2017-03-31T18:43:06Z</time>
      </trkpt>
      <trkpt lat="49.32146" lon="1.15942">
        <ele>60.053</ele>
        <time>2017-03-31T18:43:26Z</time>
      </trkpt>
      <trkpt lat="49.32205" lon="1.15966">
        <ele>73.922</ele>
        <time>2017-03-31T18:43:46Z</time>
      </trkpt>
      <trkpt lat="49.32282" lon="1.15968">
        <ele>78.059</ele>
        <time>2017-03-31T18:44:06Z</time>
      </trkpt>
      <trkpt lat="49.32322" lon="1.15982">
        <ele>78.433</ele>
        <time>2017-03-31T18:44:26Z</time>
      </trkpt>
      <trkpt lat="49.32352" lon="1.15998">
        <ele>79.59</ele>
        <time>2017-03-31T18:44:46Z</time>
      </trkpt>
      <trkpt lat="49.32387" lon="1.16028">
        <ele>80.016</ele>
        <time>2017-03-31T18:45:06Z</time>
      </trkpt>
      <trkpt lat="49.32412" lon="1.16038">
        <ele>79.244</ele>
        <time>2017-03-31T18:45:26Z</time>
      </trkpt>
      <trkpt lat="49.32468" lon="1.16066">
        <ele>75.693</ele>
        <time>2017-03-31T18:45:46Z</time>
      </trkpt>
      <trkpt lat="49.32515" lon="1.16076">
        <ele>73.565</ele>
        <time>2017-03-31T18:46:06Z</time>
      </trkpt>
      <trkpt lat="49.32559" lon="1.16096">
        <ele>74.121</ele>
        <time>2017-03-31T18:46:26Z</time>
      </trkpt>
      <trkpt lat="49.32607" lon="1.16123">
        <ele>77.608</ele>
        <time>2017-03-31T18:46:46Z</time>
      </trkpt>
      <trkpt lat="49.32595" lon="1.16091">
        <ele>75.753</ele>
        <time>2017-03-31T18:47:06Z</time>
      </trkpt>
      <trkpt lat="49.32582" lon="1.16036">
        <ele>73.925</ele>
        <time>2017-03-31T18:47:26Z</time>
      </trkpt>
      <trkpt lat="49.32581" lon="1.16">
        <ele>73.864</ele>
        <time>2017-03-31T18:47:46Z</time>
      </trkpt>
      <trkpt lat="49.32592" lon="1.1594">
        <ele>70.551</ele>
        <time>2017-03-31T18:48:06Z</time>
      </trkpt>
      <trkpt lat="49.32597" lon="1.15879">
        <ele>68.525</ele>
        <time>2017-03-31T18:48:26Z</time>
      </trkpt>
      <trkpt lat="49.32593" lon="1.15798">
        <ele>65.272</ele>
        <time>2017-03-31T18:48:46Z</time>
      </trkpt>
      <trkpt lat="49.32579" lon="1.15741">
        <ele>62.928</ele>
        <time>2017-03-31T18:49:06Z</time>
      </trkpt>
      <trkpt lat="49.32547" lon="1.15657">
        <ele>62.066</ele>
        <time>2017-03-31T18:49:26Z</time>
      </trkpt>
      <trkpt lat="49.32519" lon="1.15623">
        <ele>62.934</ele>
        <time>2017-03-31T18:49:46Z</time>
      </trkpt>
      <trkpt lat="49.3244" lon="1.15552">
        <ele>61.155</ele>
        <time>2017-03-31T18:50:06Z</time>
      </trkpt>
      <trkpt lat="49.32401" lon="1.1549">
        <ele>61.41</ele>
        <time>2017-03-31T18:50:26Z</time>
      </trkpt>
      <trkpt lat="49.32335" lon="1.15326">
        <ele>57.508</ele>
        <time>2017-03-31T18:50:46Z</time>
      </trkpt>
      <trkpt lat="49.3228" lon="1.15175">
        <ele>53.167</ele>
        <time>2017-03-31T18:51:06Z</time>
      </trkpt>
      <trkpt lat="49.3224" lon="1.15082">
        <ele>47.289</ele>
        <time>2017-03-31T18:51:26Z</time>
      </trkpt>
      <trkpt lat="49.32229" lon="1.15041">
        <ele>44.988</ele>
        <time>2017-03-31T18:51:46Z</time>
      </trkpt>
      <trkpt lat="49.32211" lon="1.14997">
        <ele>39.945</ele>
        <time>2017-03-31T18:52:06Z</time>
      </trkpt>
      <trkpt lat="49.32208" lon="1.14954">
        <ele>34.769</ele>
        <time>2017-03-31T18:52:26Z</time>
      </trkpt>
      <trkpt lat="49.32213" lon="1.14941">
        <ele>33.426</ele>
        <time>2017-03-31T18:52:46Z</time>
      </trkpt>
      <trkpt lat="49.3224" lon="1.14928">
        <ele>31.342</ele>
        <time>2017-03-31T18:53:06Z</time>
      </trkpt>
      <trkpt lat="49.32247" lon="1.1493">
        <ele>31.44</ele>
        <time>2017-03-31T18:53:26Z</time>
      </trkpt>
      <trkpt lat="49.32267" lon="1.14945">
        <ele>32.885</ele>
        <time>2017-03-31T18:53:46Z</time>
      </trkpt>
      <trkpt lat="49.32274" lon="1.14941">
        <ele>31.789</ele>
        <time>2017-03-31T18:54:06Z</time>
      </trkpt>
      <trkpt lat="49.32274" lon="1.14912">
        <ele>26.717</ele>
        <time>2017-03-31T18:54:26Z</time>
      </trkpt>
      <trkpt lat="49.32281" lon="1.14901">
        <ele>25.208</ele>
        <time>2017-03-31T18:54:46Z</time>
      </trkpt>
      <trkpt lat="49.32281" lon="1.14901">
        <ele>25.232</ele>
        <time>2017-03-31T18:55:06Z</time>
      </trkpt>
      <trkpt lat="49.32257" lon="1.14853">
        <ele>19.934</ele>
        <time>2017-03-31T18:55:26Z</time>
      </trkpt>
      <trkpt lat="49.32205" lon="1.14774">
        <ele>18.533</ele>
        <time>2017-03-31T18:55:46Z</time>
      </trkpt>
      <trkpt lat="49.32136" lon="1.14735">
        <ele>16.82</ele>
        <time>2017-03-31T18:56:06Z</time>
      </trkpt>
      <trkpt lat="49.32122" lon="1.14782">
        <ele>17.534</ele>
        <time>2017-03-31T18:56:26Z</time>
      </trkpt>
      <trkpt lat="49.32115" lon="1.14718">
        <ele>15.381</ele>
        <time>2017-03-31T18:56:46Z</time>
      </trkpt>
      <trkpt lat="49.32065" lon="1.14682">
        <ele>13.397</ele>
        <time>2017-03-31T18:57:06Z</time>
      </trkpt>
      <trkpt lat="49.31918" lon="1.14679">
        <ele>12.095</ele>
        <time>2017-03-31T18:57:26Z</time>
      </trkpt>
      <trkpt lat="49.31903" lon="1.14587">
        <ele>9.662</ele>
        <time>2017-03-31T18:57:46Z</time>
      </trkpt>
      <trkpt lat="49.319" lon="1.14514">
        <ele>10.083</ele>
        <time>2017-03-31T18:58:06Z</time>
      </trkpt>
      <trkpt lat="49.31871" lon="1.14469">
        <ele>9.311</ele>
        <time>2017-03-31T18:58:26Z</time>
      </trkpt>
      <trkpt lat="49.31847" lon="1.14289">
        <ele>6.208</ele>
        <time>2017-03-31T18:58:46Z</time>
      </trkpt>
      <trkpt lat="49.31822" lon="1.14055">
        <ele>5.67</ele>
        <time>2017-03-31T18:59:06Z</time>
      </trkpt>
      <trkpt lat="49.31801" lon="1.13804">
        <ele>5.272</ele>
        <time>2017-03-31T18:59:26Z</time>
      </trkpt>
      <trkpt lat="49.31799" lon="1.13574">
        <ele>5.131</ele>
        <time>2017-03-31T18:59:46Z</time>
      </trkpt>
      <trkpt lat="49.31841" lon="1.13177">
        <ele>6.358</ele>
        <time>2017-03-31T19:00:06Z</time>
      </trkpt>
      <trkpt lat="49.31886" lon="1.12995">
        <ele>7.852</ele>
        <time>2017-03-31T19:00:26Z</time>
      </trkpt>
      <trkpt lat="49.3192" lon="1.128">
        <ele>10.399</ele>
        <time>2017-03-31T19:00:46Z</time>
      </trkpt>
      <trkpt lat="49.31949" lon="1.12617">
        <ele>14.295</ele>
        <time>2017-03-31T19:01:06Z</time>
      </trkpt>
      <trkpt lat="49.31998" lon="1.12562">
        <ele>18.013</ele>
        <time>2017-03-31T19:01:26Z</time>
      </trkpt>
      <trkpt lat="49.31994" lon="1.12499">
        <ele>19.116</ele>
        <time>2017-03-31T19:01:46Z</time>
      </trkpt>
      <trkpt lat="49.32019" lon="1.12253">
        <ele>26.076</ele>
        <time>2017-03-31T19:02:06Z</time>
      </trkpt>
      <trkpt lat="49.32059" lon="1.1221">
        <ele>30.913</ele>
        <time>2017-03-31T19:02:26Z</time>
      </trkpt>
      <trkpt lat="49.32096" lon="1.1219">
        <ele>35.508</ele>
        <time>2017-03-31T19:02:46Z</time>
      </trkpt>
      <trkpt lat="49.321" lon="1.1225">
        <ele>39.665</ele>
        <time>2017-03-31T19:03:06Z</time>
      </trkpt>
      <trkpt lat="49.3215" lon="1.12328">
        <ele>58.587</ele>
        <time>2017-03-31T19:03:26Z</time>
      </trkpt>
      <trkpt lat="49.32139" lon="1.12364">
        <ele>60.376</ele>
        <time>2017-03-31T19:03:46Z</time>
      </trkpt>
      <trkpt lat="49.32147" lon="1.1242">
        <ele>64.083</ele>
        <time>2017-03-31T19:04:06Z</time>
      </trkpt>
      <trkpt lat="49.32171" lon="1.12463">
        <ele>67.627</ele>
        <time>2017-03-31T19:04:26Z</time>
      </trkpt>
      <trkpt lat="49.32187" lon="1.12446">
        <ele>71.524</ele>
        <time>2017-03-31T19:04:46Z</time>
      </trkpt>
      <trkpt lat="49.3223" lon="1.12426">
        <ele>74.38</ele>
        <time>2017-03-31T19:05:06Z</time>
      </trkpt>
      <trkpt lat="49.32254" lon="1.12504">
        <ele>76.388</ele>
        <time>2017-03-31T19:05:26Z</time>
      </trkpt>
      <trkpt lat="49.32277" lon="1.12541">
        <ele>79.415</ele>
        <time>2017-03-31T19:05:46Z</time>
      </trkpt>
      <trkpt lat="49.32429" lon="1.12378">
        <ele>81.065</ele>
        <time>2017-03-31T19:06:06Z</time>
      </trkpt>
      <trkpt lat="49.32442" lon="1.12355">
        <ele>81.011</ele>
        <time>2017-03-31T19:06:26Z</time>
      </trkpt>
      <trkpt lat="49.32451" lon="1.12247">
        <ele>83.208</ele>
        <time>2017-03-31T19:06:46Z</time>
      </trkpt>
      <trkpt lat="49.3246" lon="1.12189">
        <ele>84.415</ele>
        <time>2017-03-31T19:07:06Z</time>
      </trkpt>
      <trkpt lat="49.32474" lon="1.12063">
        <ele>82.657</ele>
        <time>2017-03-31T19:07:26Z</time>
      </trkpt>
      <trkpt lat="49.32492" lon="1.11958">
        <ele>83.396</ele>
        <time>2017-03-31T19:07:46Z</time>
      </trkpt>
      <trkpt lat="49.32486" lon="1.11904">
        <ele>80.683</ele>
        <time>2017-03-31T19:08:06Z</time>
      </trkpt>
      <trkpt lat="49.32401" lon="1.11472">
        <ele>72.667</ele>
        <time>2017-03-31T19:08:26Z</time>
      </trkpt>
      <trkpt lat="49.32401" lon="1.11441">
        <ele>72.834</ele>
        <time>2017-03-31T19:08:46Z</time>
      </trkpt>
      <trkpt lat="49.32443" lon="1.11329">
        <ele>71.02</ele>
        <time>2017-03-31T19:09:06Z</time>
      </trkpt>
      <trkpt lat="49.32464" lon="1.11255">
        <ele>67.578</ele>
        <time>2017-03-31T19:09:26Z</time>
      </trkpt>
      <trkpt lat="49.32487" lon="1.11202">
        <ele>63.555</ele>
        <time>2017-03-31T19:09:46Z</time>
      </trkpt>
      <trkpt lat="49.32546" lon="1.11049">
        <ele>57.007</ele>
        <time>2017-03-31T19:10:06Z</time>
      </trkpt>
      <trkpt lat="49.32584" lon="1.10937">
        <ele>47.517</ele>
        <time>2017-03-31T19:10:26Z</time>
      </trkpt>
      <trkpt lat="49.32681" lon="1.10769">
        <ele>36.608</ele>
        <time>2017-03-31T19:10:46Z</time>
      </trkpt>
      <trkpt lat="49.3272" lon="1.10698">
        <ele>29.589</ele>
        <time>2017-03-31T19:11:06Z</time>
      </trkpt>
      <trkpt lat="49.32739" lon="1.10633">
        <ele>24.661</ele>
        <time>2017-03-31T19:11:26Z</time>
      </trkpt>
      <trkpt lat="49.32751" lon="1.1059">
        <ele>18.41</ele>
        <time>2017-03-31T19:11:46Z</time>
      </trkpt>
      <trkpt lat="49.32847" lon="1.10636">
        <ele>12.817</ele>
        <time>2017-03-31T19:12:06Z</time>
      </trkpt>
      <trkpt lat="49.32875" lon="1.10616">
        <ele>8.261</ele>
        <time>2017-03-31T19:12:26Z</time>
      </trkpt>
      <trkpt lat="49.32908" lon="1.10578">
        <ele>7.038</ele>
        <time>2017-03-31T19:12:46Z</time>
      </trkpt>
      <trkpt lat="49.32876" lon="1.10508">
        <ele>7.414</ele>
        <time>2017-03-31T19:13:06Z</time>
      </trkpt>
      <trkpt lat="49.3288" lon="1.10472">
        <ele>8.092</ele>
        <time>2017-03-31T19:13:26Z</time>
      </trkpt>
      <trkpt lat="49.32894" lon="1.10465">
        <ele>8.017</ele>
        <time>2017-03-31T19:13:46Z</time>
      </trkpt>
      <trkpt lat="49.32983" lon="1.10444">
        <ele>7.687</ele>
        <time>2017-03-31T19:14:06Z</time>
      </trkpt>
      <trkpt lat="49.33113" lon="1.10459">
        <ele>5.615</ele>
        <time>2017-03-31T19:14:26Z</time>
      </trkpt>
      <trkpt lat="49.33114" lon="1.10381">
        <ele>5.408</ele>
        <time>2017-03-31T19:14:46Z</time>
      </trkpt>
      <trkpt lat="49.33126" lon="1.10346">
        <ele>7.125</ele>
        <time>2017-03-31T19:15:06Z</time>
      </trkpt>
      <trkpt lat="49.33129" lon="1.10325">
        <ele>7.677</ele>
        <time>2017-03-31T19:15:26Z</time>
      </trkpt>
      <trkpt lat="49.33128" lon="1.1027">
        <ele>7.796</ele>
        <time>2017-03-31T19:15:46Z</time>
      </trkpt>
      <trkpt lat="49.33132" lon="1.10239">
        <ele>8.093</ele>
        <time>2017-03-31T19:16:06Z</time>
      </trkpt>
      <trkpt lat="49.33142" lon="1.10228">
        <ele>8.197</ele>
        <time>2017-03-31T19:16:26Z</time>
      </trkpt>
      <trkpt lat="49.33124" lon="1.10216">
        <ele>8.054</ele>
        <time>2017-03-31T19:16:46Z</time>
      </trkpt>
      <trkpt lat="49.33098" lon="1.10187">
        <ele>8.23</ele>
        <time>2017-03-31T19:17:06Z</time>
      </trkpt>
      <trkpt lat="49.33078" lon="1.10158">
        <ele>7.878</ele>
        <time>2017-03-31T19:17:26Z</time>
      </trkpt>
      <trkpt lat="49.33069" lon="1.10132">
        <ele>6.974</ele>
        <time>2017-03-31T19:17:46Z</time>
      </trkpt>
      <trkpt lat="49.33108" lon="1.10107">
        <ele>6.956</ele>
        <time>2017-03-31T19:18:06Z</time>
      </trkpt>
      <trkpt lat="49.33168" lon="1.10065">
        <ele>6.521</ele>
        <time>2017-03-31T19:18:26Z</time>
      </trkpt>
      <trkpt lat="49.33179" lon="1.10063">
        <ele>7.608</ele>
        <time>2017-03-31T19:18:46Z</time>
      </trkpt>
      <trkpt lat="49.3319" lon="1.10069">
        <ele>9.081</ele>
        <time>2017-03-31T19:19:06Z</time>
      </trkpt>
      <trkpt lat="49.33201" lon="1.10061">
        <ele>9.093</ele>
        <time>2017-03-31T19:19:26Z</time>
      </trkpt>
      <trkpt lat="49.33215" lon="1.10051">
        <ele>8.092</ele>
        <time>2017-03-31T19:19:46Z</time>
      </trkpt>
      <trkpt lat="49.33246" lon="1.10051">
        <ele>7.049</ele>
        <time>2017-03-31T19:20:06Z</time>
      </trkpt>
      <trkpt lat="49.33322" lon="1.10029">
        <ele>7.073</ele>
        <time>2017-03-31T19:20:26Z</time>
      </trkpt>
      <trkpt lat="49.33345" lon="1.10029">
        <ele>6.61</ele>
        <time>2017-03-31T19:20:46Z</time>
      </trkpt>
      <trkpt lat="49.33382" lon="1.10044">
        <ele>7.046</ele>
        <time>2017-03-31T19:21:06Z</time>
      </trkpt>
      <trkpt lat="49.33611" lon="1.10202">
        <ele>9.264</ele>
        <time>2017-03-31T19:21:26Z</time>
      </trkpt>
      <trkpt lat="49.33651" lon="1.10216">
        <ele>10.283</ele>
        <time>2017-03-31T19:21:46Z</time>
      </trkpt>
      <trkpt lat="49.33693" lon="1.1022">
        <ele>10.025</ele>
        <time>2017-03-31T19:22:06Z</time>
      </trkpt>
      <trkpt lat="49.33949" lon="1.1019">
        <ele>2.917</ele>
        <time>2017-03-31T19:22:26Z</time>
      </trkpt>
      <trkpt lat="49.33947" lon="1.10177">
        <ele>3.008</ele>
        <time>2017-03-31T19:22:46Z</time>
      </trkpt>
      <trkpt lat="49.3394" lon="1.10181">
        <ele>2.972</ele>
        <time>2017-03-31T19:23:06Z</time>
      </trkpt>
      <trkpt lat="49.33912" lon="1.10015">
        <ele>7.194</ele>
        <time>2017-03-31T19:23:26Z</time>
      </trkpt>
      <trkpt lat="49.33894" lon="1.09887">
        <ele>8.013</ele>
        <time>2017-03-31T19:23:46Z</time>
      </trkpt>
      <trkpt lat="49.33857" lon="1.09605">
        <ele>5.41</ele>
        <time>2017-03-31T19:24:06Z</time>
      </trkpt>
      <trkpt lat="49.33855" lon="1.09548">
        <ele>7.354</ele>
        <time>2017-03-31T19:24:26Z</time>
      </trkpt>
      <trkpt lat="49.33859" lon="1.09541">
        <ele>7.171</ele>
        <time>2017-03-31T19:24:46Z</time>
      </trkpt>
      <trkpt lat="49.33858" lon="1.09494">
        <ele>6.057</ele>
        <time>2017-03-31T19:25:06Z</time>
      </trkpt>
      <trkpt lat="49.33853" lon="1.09444">
        <ele>4.785</ele>
        <time>2017-03-31T19:25:26Z</time>
      </trkpt>
      <trkpt lat="49.33843" lon="1.09385">
        <ele>5.731</ele>
        <time>2017-03-31T19:25:46Z</time>
      </trkpt>
      <trkpt lat="49.33826" lon="1.09328">
        <ele>5.961</ele>
        <time>2017-03-31T19:26:06Z</time>
      </trkpt>
      <trkpt lat="49.33804" lon="1.09273">
        <ele>6.007</ele>
        <time>2017-03-31T19:26:26Z</time>
      </trkpt>
      <trkpt lat="49.33781" lon="1.0923">
        <ele>5.108</ele>
        <time>2017-03-31T19:26:46Z</time>
      </trkpt>
      <trkpt lat="49.33744" lon="1.09181">
        <ele>4.627</ele>
        <time>2017-03-31T19:27:06Z</time>
      </trkpt>
      <trkpt lat="49.33734" lon="1.09161">
        <ele>4.439</ele>
        <time>2017-03-31T19:27:26Z</time>
      </trkpt>
      <trkpt lat="49.3373" lon="1.09145">
        <ele>4.338</ele>
        <time>2017-03-31T19:27:46Z</time>
      </trkpt>
      <trkpt lat="49.33721" lon="1.09127">
        <ele>4.325</ele>
        <time>2017-03-31T19:28:06Z</time>
      </trkpt>
      <trkpt lat="49.33697" lon="1.09095">
        <ele>2.649</ele>
        <time>2017-03-31T19:28:26Z</time>
      </trkpt>
      <trkpt lat="49.33667" lon="1.09032">
        <ele>3.046</ele>
        <time>2017-03-31T19:28:46Z</time>
      </trkpt>
      <trkpt lat="49.33649" lon="1.0902">
        <ele>3.442</ele>
        <time>2017-03-31T19:29:06Z</time>
      </trkpt>
      <trkpt lat="49.33639" lon="1.09002">
        <ele>3.99</ele>
        <time>2017-03-31T19:29:26Z</time>
      </trkpt>
      <trkpt lat="49.33618" lon="1.08912">
        <ele>5.427</ele>
        <time>2017-03-31T19:29:46Z</time>
      </trkpt>
      <trkpt lat="49.3359" lon="1.08785">
        <ele>2.868</ele>
        <time>2017-03-31T19:30:06Z</time>
      </trkpt>
      <trkpt lat="49.33582" lon="1.08734">
        <ele>3.514</ele>
        <time>2017-03-31T19:30:26Z</time>
      </trkpt>
      <trkpt lat="49.33589" lon="1.08701">
        <ele>6.308</ele>
        <time>2017-03-31T19:30:46Z</time>
      </trkpt>
      <trkpt lat="49.33596" lon="1.0863">
        <ele>10.426</ele>
        <time>2017-03-31T19:31:06Z</time>
      </trkpt>
      <trkpt lat="49.33598" lon="1.08532">
        <ele>10.538</ele>
        <time>2017-03-31T19:31:26Z</time>
      </trkpt>
      <trkpt lat="49.33614" lon="1.08414">
        <ele>10.817</ele>
        <time>2017-03-31T19:31:46Z</time>
      </trkpt>
      <trkpt lat="49.33618" lon="1.0836">
        <ele>8.594</ele>
        <time>2017-03-31T19:32:06Z</time>
      </trkpt>
      <trkpt lat="49.33621" lon="1.08229">
        <ele>9.268</ele>
        <time>2017-03-31T19:32:26Z</time>
      </trkpt>
      <trkpt lat="49.33612" lon="1.08053">
        <ele>7.255</ele>
        <time>2017-03-31T19:32:46Z</time>
      </trkpt>
      <trkpt lat="49.33603" lon="1.07964">
        <ele>7.221</ele>
        <time>2017-03-31T19:33:06Z</time>
      </trkpt>
      <trkpt lat="49.33579" lon="1.07773">
        <ele>10.069</ele>
        <time>2017-03-31T19:33:26Z</time>
      </trkpt>
      <trkpt lat="49.33573" lon="1.07751">
        <ele>10.624</ele>
        <time>2017-03-31T19:33:46Z</time>
      </trkpt>
      <trkpt lat="49.33554" lon="1.0768">
        <ele>11.504</ele>
        <time>2017-03-31T19:34:06Z</time>
      </trkpt>
      <trkpt lat="49.3354" lon="1.07638">
        <ele>9.414</ele>
        <time>2017-03-31T19:34:26Z</time>
      </trkpt>
      <trkpt lat="49.33518" lon="1.07583">
        <ele>7.708</ele>
        <time>2017-03-31T19:34:46Z</time>
      </trkpt>
      <trkpt lat="49.33434" lon="1.07428">
        <ele>4.936</ele>
        <time>2017-03-31T19:35:06Z</time>
      </trkpt>
      <trkpt lat="49.33356" lon="1.07273">
        <ele>5.958</ele>
        <time>2017-03-31T19:35:26Z</time>
      </trkpt>
      <trkpt lat="49.33346" lon="1.07244">
        <ele>4.797</ele>
        <time>2017-03-31T19:35:46Z</time>
      </trkpt>
      <trkpt lat="49.33333" lon="1.07216">
        <ele>3.084</ele>
        <time>2017-03-31T19:36:06Z</time>
      </trkpt>
      <trkpt lat="49.33311" lon="1.07109">
        <ele>4.278</ele>
        <time>2017-03-31T19:36:26Z</time>
      </trkpt>
      <trkpt lat="49.3331" lon="1.07088">
        <ele>4.485</ele>
        <time>2017-03-31T19:36:46Z</time>
      </trkpt>
      <trkpt lat="49.33288" lon="1.06991">
        <ele>4.471</ele>
        <time>2017-03-31T19:37:06Z</time>
      </trkpt>
      <trkpt lat="49.33233" lon="1.06815">
        <ele>4.419</ele>
        <time>2017-03-31T19:37:26Z</time>
      </trkpt>
      <trkpt lat="49.33182" lon="1.06675">
        <ele>5.624</ele>
        <time>2017-03-31T19:37:46Z</time>
      </trkpt>
      <trkpt lat="49.33095" lon="1.0649">
        <ele>3.604</ele>
        <time>2017-03-31T19:38:06Z</time>
      </trkpt>
      <trkpt lat="49.33086" lon="1.06476">
        <ele>3.014</ele>
        <time>2017-03-31T19:38:26Z</time>
      </trkpt>
      <trkpt lat="49.33069" lon="1.06433">
        <ele>2.708</ele>
        <time>2017-03-31T19:38:46Z</time>
      </trkpt>
      <trkpt lat="49.33009" lon="1.06311">
        <ele>2.796</ele>
        <time>2017-03-31T19:39:06Z</time>
      </trkpt>
      <trkpt lat="49.32966" lon="1.06206">
        <ele>3.678</ele>
        <time>2017-03-31T19:39:26Z</time>
      </trkpt>
      <trkpt lat="49.32954" lon="1.06152">
        <ele>5.277</ele>
        <time>2017-03-31T19:39:46Z</time>
      </trkpt>
      <trkpt lat="49.32887" lon="1.05931">
        <ele>4.334</ele>
        <time>2017-03-31T19:40:06Z</time>
      </trkpt>
      <trkpt lat="49.32874" lon="1.0587">
        <ele>4.988</ele>
        <time>2017-03-31T19:40:26Z</time>
      </trkpt>
      <trkpt lat="49.32837" lon="1.05724">
        <ele>2.975</ele>
        <time>2017-03-31T19:40:46Z</time>
      </trkpt>
      <trkpt lat="49.32858" lon="1.05721">
        <ele>2.171</ele>
        <time>2017-03-31T19:41:06Z</time>
      </trkpt>
      <trkpt lat="49.32937" lon="1.05683">
        <ele>7.449</ele>
        <time>2017-03-31T19:41:26Z</time>
      </trkpt>
      <trkpt lat="49.32949" lon="1.05671">
        <ele>10.775</ele>
        <time>2017-03-31T19:41:46Z</time>
      </trkpt>
      <trkpt lat="49.32985" lon="1.05763">
        <ele>12.228</ele>
        <time>2017-03-31T19:42:06Z</time>
      </trkpt>
      <trkpt lat="49.32988" lon="1.05751">
        <ele>13.22</ele>
        <time>2017-03-31T19:42:26Z</time>
      </trkpt>
      <trkpt lat="49.32977" lon="1.05714">
        <ele>13.208</ele>
        <time>2017-03-31T19:42:46Z</time>
      </trkpt>
      <trkpt lat="49.32977" lon="1.05662">
        <ele>18.911</ele>
        <time>2017-03-31T19:43:06Z</time>
      </trkpt>
      <trkpt lat="49.32981" lon="1.05643">
        <ele>23.393</ele>
        <time>2017-03-31T19:43:26Z</time>
      </trkpt>
      <trkpt lat="49.32991" lon="1.05639">
        <ele>26.792</ele>
        <time>2017-03-31T19:43:46Z</time>
      </trkpt>
      <trkpt lat="49.33004" lon="1.05598">
        <ele>36.439</ele>
        <time>2017-03-31T19:44:06Z</time>
      </trkpt>
      <trkpt lat="49.33018" lon="1.05565">
        <ele>45.453</ele>
        <time>2017-03-31T19:44:26Z</time>
      </trkpt>
      <trkpt lat="49.33015" lon="1.05534">
        <ele>48.43</ele>
        <time>2017-03-31T19:44:46Z</time>
      </trkpt>
      <trkpt lat="49.33001" lon="1.05469">
        <ele>54.996</ele>
        <time>2017-03-31T19:45:06Z</time>
      </trkpt>
      <trkpt lat="49.3299" lon="1.05444">
        <ele>55.914</ele>
        <time>2017-03-31T19:45:26Z</time>
      </trkpt>
      <trkpt lat="49.32986" lon="1.05422">
        <ele>58.623</ele>
        <time>2017-03-31T19:45:46Z</time>
      </trkpt>
      <trkpt lat="49.32986" lon="1.0537">
        <ele>67.783</ele>
        <time>2017-03-31T19:46:06Z</time>
      </trkpt>
      <trkpt lat="49.32996" lon="1.05313">
        <ele>76.411</ele>
        <time>2017-03-31T19:46:26Z</time>
      </trkpt>
      <trkpt lat="49.32996" lon="1.0523">
        <ele>82.208</ele>
        <time>2017-03-31T19:46:46Z</time>
      </trkpt>
      <trkpt lat="49.32994" lon="1.05159">
        <ele>88.546</ele>
        <time>2017-03-31T19:47:06Z</time>
      </trkpt>
      <trkpt lat="49.32961" lon="1.04969">
        <ele>94.178</ele>
        <time>2017-03-31T19:47:26Z</time>
      </trkpt>
      <trkpt lat="49.32952" lon="1.04937">
        <ele>93.797</ele>
        <time>2017-03-31T19:47:46Z</time>
      </trkpt>
      <trkpt lat="49.32924" lon="1.04779">
        <ele>94.914</ele>
        <time>2017-03-31T19:48:06Z</time>
      </trkpt>
      <trkpt lat="49.329" lon="1.0471">
        <ele>95.268</ele>
        <time>2017-03-31T19:48:26Z</time>
      </trkpt>
      <trkpt lat="49.32886" lon="1.04646">
        <ele>102.385</ele>
        <time>2017-03-31T19:48:46Z</time>
      </trkpt>
      <trkpt lat="49.32874" lon="1.04626">
        <ele>101.991</ele>
        <time>2017-03-31T19:49:06Z</time>
      </trkpt>
      <trkpt lat="49.32871" lon="1.04605">
        <ele>102.999</ele>
        <time>2017-03-31T19:49:26Z</time>
      </trkpt>
      <trkpt lat="49.32835" lon="1.04531">
        <ele>98.499</ele>
        <time>2017-03-31T19:49:46Z</time>
      </trkpt>
      <trkpt lat="49.32829" lon="1.04501">
        <ele>99.407</ele>
        <time>2017-03-31T19:50:06Z</time>
      </trkpt>
      <trkpt lat="49.32827" lon="1.04438">
        <ele>107.227</ele>
        <time>2017-03-31T19:50:26Z</time>
      </trkpt>
      <trkpt lat="49.32844" lon="1.04358">
        <ele>117.708</ele>
        <time>2017-03-31T19:50:46Z</time>
      </trkpt>
      <trkpt lat="49.32839" lon="1.04283">
        <ele>120.183</ele>
        <time>2017-03-31T19:51:06Z</time>
      </trkpt>
      <trkpt lat="49.32818" lon="1.0422">
        <ele>120.155</ele>
        <time>2017-03-31T19:51:26Z</time>
      </trkpt>
      <trkpt lat="49.32824" lon="1.0417">
        <ele>123.354</ele>
        <time>2017-03-31T19:51:46Z</time>
      </trkpt>
      <trkpt lat="49.32821" lon="1.04143">
        <ele>122.171</ele>
        <time>2017-03-31T19:52:06Z</time>
      </trkpt>
      <trkpt lat="49.32832" lon="1.0412">
        <ele>122.655</ele>
        <time>2017-03-31T19:52:26Z</time>
      </trkpt>
      <trkpt lat="49.32859" lon="1.041">
        <ele>122.272</ele>
        <time>2017-03-31T19:52:46Z</time>
      </trkpt>
      <trkpt lat="49.32892" lon="1.04061">
        <ele>123.918</ele>
        <time>2017-03-31T19:53:06Z</time>
      </trkpt>
      <trkpt lat="49.32914" lon="1.04027">
        <ele>124.686</ele>
        <time>2017-03-31T19:53:26Z</time>
      </trkpt>
      <trkpt lat="49.32954" lon="1.03938">
        <ele>128.137</ele>
        <time>2017-03-31T19:53:46Z</time>
      </trkpt>
      <trkpt lat="49.32967" lon="1.03892">
        <ele>130.849</ele>
        <time>2017-03-31T19:54:06Z</time>
      </trkpt>
      <trkpt lat="49.32969" lon="1.03763">
        <ele>132.813</ele>
        <time>2017-03-31T19:54:26Z</time>
      </trkpt>
      <trkpt lat="49.32957" lon="1.037">
        <ele>134.108</ele>
        <time>2017-03-31T19:54:46Z</time>
      </trkpt>
      <trkpt lat="49.32953" lon="1.03663">
        <ele>135.097</ele>
        <time>2017-03-31T19:55:06Z</time>
      </trkpt>
      <trkpt lat="49.32934" lon="1.03642">
        <ele>134.589</ele>
        <time>2017-03-31T19:55:26Z</time>
      </trkpt>
      <trkpt lat="49.32923" lon="1.0364">
        <ele>134.168</ele>
        <time>2017-03-31T19:55:46Z</time>
      </trkpt>
      <trkpt lat="49.32905" lon="1.03625">
        <ele>132.855</ele>
        <time>2017-03-31T19:56:06Z</time>
      </trkpt>
      <trkpt lat="49.32903" lon="1.03616">
        <ele>132.539</ele>
        <time>2017-03-31T19:56:26Z</time>
      </trkpt>
      <trkpt lat="49.3288" lon="1.03625">
        <ele>128.696</ele>
        <time>2017-03-31T19:56:46Z</time>
      </trkpt>
      <trkpt lat="49.32842" lon="1.03636">
        <ele>119.672</ele>
        <time>2017-03-31T19:57:06Z</time>
      </trkpt>
      <trkpt lat="49.32856" lon="1.03606">
        <ele>120.89</ele>
        <time>2017-03-31T19:57:26Z</time>
      </trkpt>
      <trkpt lat="49.32872" lon="1.03532">
        <ele>121.736</ele>
        <time>2017-03-31T19:57:46Z</time>
      </trkpt>
      <trkpt lat="49.32858" lon="1.0347">
        <ele>119.917</ele>
        <time>2017-03-31T19:58:06Z</time>
      </trkpt>
      <trkpt lat="49.32829" lon="1.03386">
        <ele>119.518</ele>
        <time>2017-03-31T19:58:26Z</time>
      </trkpt>
      <trkpt lat="49.32835" lon="1.03368">
        <ele>120.608</ele>
        <time>2017-03-31T19:58:46Z</time>
      </trkpt>
      <trkpt lat="49.32843" lon="1.03357">
        <ele>122.337</ele>
        <time>2017-03-31T19:59:06Z</time>
      </trkpt>
      <trkpt lat="49.32851" lon="1.03336">
        <ele>123.329</ele>
        <time>2017-03-31T19:59:26Z</time>
      </trkpt>
      <trkpt lat="49.32858" lon="1.03244">
        <ele>121.498</ele>
        <time>2017-03-31T19:59:46Z</time>
      </trkpt>
      <trkpt lat="49.32854" lon="1.03211">
        <ele>125.525</ele>
        <time>2017-03-31T20:00:06Z</time>
      </trkpt>
      <trkpt lat="49.32844" lon="1.03184">
        <ele>125.619</ele>
        <time>2017-03-31T20:00:26Z</time>
      </trkpt>
      <trkpt lat="49.32822" lon="1.03143">
        <ele>122.316</ele>
        <time>2017-03-31T20:00:46Z</time>
      </trkpt>
      <trkpt lat="49.32799" lon="1.03118">
        <ele>119.172</ele>
        <time>2017-03-31T20:01:06Z</time>
      </trkpt>
      <trkpt lat="49.32798" lon="1.03104">
        <ele>119.05</ele>
        <time>2017-03-31T20:01:26Z</time>
      </trkpt>
      <trkpt lat="49.32805" lon="1.03042">
        <ele>119.913</ele>
        <time>2017-03-31T20:01:46Z</time>
      </trkpt>
      <trkpt lat="49.32799" lon="1.02979">
        <ele>121.243</ele>
        <time>2017-03-31T20:02:06Z</time>
      </trkpt>
      <trkpt lat="49.32789" lon="1.02944">
        <ele>123.807</ele>
        <time>2017-03-31T20:02:26Z</time>
      </trkpt>
      <trkpt lat="49.32776" lon="1.02919">
        <ele>123.308</ele>
        <time>2017-03-31T20:02:46Z</time>
      </trkpt>
      <trkpt lat="49.32728" lon="1.02855">
        <ele>113.755</ele>
        <time>2017-03-31T20:03:06Z</time>
      </trkpt>
      <trkpt lat="49.32738" lon="1.02822">
        <ele>113.687</ele>
        <time>2017-03-31T20:03:26Z</time>
      </trkpt>
      <trkpt lat="49.32744" lon="1.02787">
        <ele>108.976</ele>
        <time>2017-03-31T20:03:46Z</time>
      </trkpt>
      <trkpt lat="49.32759" lon="1.02729">
        <ele>98.983</ele>
        <time>2017-03-31T20:04:06Z</time>
      </trkpt>
      <trkpt lat="49.32751" lon="1.02657">
        <ele>97.837</ele>
        <time>2017-03-31T20:04:26Z</time>
      </trkpt>
      <trkpt lat="49.3271" lon="1.02366">
        <ele>120.844</ele>
        <time>2017-03-31T20:04:46Z</time>
      </trkpt>
      <trkpt lat="49.32691" lon="1.02309">
        <ele>117.19</ele>
        <time>2017-03-31T20:05:06Z</time>
      </trkpt>
      <trkpt lat="49.32669" lon="1.02188">
        <ele>102.978</ele>
        <time>2017-03-31T20:05:26Z</time>
      </trkpt>
      <trkpt lat="49.32639" lon="1.02138">
        <ele>98.054</ele>
        <time>2017-03-31T20:05:46Z</time>
      </trkpt>
      <trkpt lat="49.32623" lon="1.02064">
        <ele>103.956</ele>
        <time>2017-03-31T20:06:06Z</time>
      </trkpt>
      <trkpt lat="49.32576" lon="1.01965">
        <ele>115.611</ele>
        <time>2017-03-31T20:06:26Z</time>
      </trkpt>
      <trkpt lat="49.32558" lon="1.01942">
        <ele>114.808</ele>
        <time>2017-03-31T20:06:46Z</time>
      </trkpt>
      <trkpt lat="49.32547" lon="1.01912">
        <ele>112.749</ele>
        <time>2017-03-31T20:07:06Z</time>
      </trkpt>
      <trkpt lat="49.32544" lon="1.0188">
        <ele>110.371</ele>
        <time>2017-03-31T20:07:26Z</time>
      </trkpt>
      <trkpt lat="49.32546" lon="1.01803">
        <ele>112.36</ele>
        <time>2017-03-31T20:07:46Z</time>
      </trkpt>
      <trkpt lat="49.32531" lon="1.01756">
        <ele>117.287</ele>
        <time>2017-03-31T20:08:06Z</time>
      </trkpt>
      <trkpt lat="49.32501" lon="1.01708">
        <ele>115.731</ele>
        <time>2017-03-31T20:08:26Z</time>
      </trkpt>
      <trkpt lat="49.32506" lon="1.01672">
        <ele>117.048</ele>
        <time>2017-03-31T20:08:46Z</time>
      </trkpt>
      <trkpt lat="49.32543" lon="1.01601">
        <ele>126.634</ele>
        <time>2017-03-31T20:09:06Z</time>
      </trkpt>
      <trkpt lat="49.3254" lon="1.01594">
        <ele>126.342</ele>
        <time>2017-03-31T20:09:26Z</time>
      </trkpt>
      <trkpt lat="49.32511" lon="1.01571">
        <ele>124.177</ele>
        <time>2017-03-31T20:09:46Z</time>
      </trkpt>
      <trkpt lat="49.325" lon="1.01542">
        <ele>126.561</ele>
        <time>2017-03-31T20:10:06Z</time>
      </trkpt>
      <trkpt lat="49.32488" lon="1.01528">
        <ele>127.527</ele>
        <time>2017-03-31T20:10:26Z</time>
      </trkpt>
      <trkpt lat="49.3243" lon="1.01436">
        <ele>129.608</ele>
        <time>2017-03-31T20:10:46Z</time>
      </trkpt>
      <trkpt lat="49.32408" lon="1.0141">
        <ele>129.091</ele>
        <time>2017-03-31T20:11:06Z</time>
      </trkpt>
      <trkpt lat="49.32393" lon="1.0137">
        <ele>129.153</ele>
        <time>2017-03-31T20:11:26Z</time>
      </trkpt>
      <trkpt lat="49.32381" lon="1.0135">
        <ele>126.642</ele>
        <time>2017-03-31T20:11:46Z</time>
      </trkpt>
      <trkpt lat="49.32372" lon="1.01322">
        <ele>124.029</ele>
        <time>2017-03-31T20:12:06Z</time>
      </trkpt>
      <trkpt lat="49.32367" lon="1.01288">
        <ele>122.323</ele>
        <time>2017-03-31T20:12:26Z</time>
      </trkpt>
      <trkpt lat="49.32365" lon="1.01228">
        <ele>119.49</ele>
        <time>2017-03-31T20:12:46Z</time>
      </trkpt>
      <trkpt lat="49.32371" lon="1.01208">
        <ele>119.736</ele>
        <time>2017-03-31T20:13:06Z</time>
      </trkpt>
      <trkpt lat="49.32276" lon="1.0111">
        <ele>108.554</ele>
        <time>2017-03-31T20:13:26Z</time>
      </trkpt>
      <trkpt lat="49.32252" lon="1.01109">
        <ele>102.043</ele>
        <time>2017-03-31T20:13:46Z</time>
      </trkpt>
      <trkpt lat="49.3223" lon="1.01097">
        <ele>94.864</ele>
        <time>2017-03-31T20:14:06Z</time>
      </trkpt>
      <trkpt lat="49.3222" lon="1.01072">
        <ele>90.81</ele>
        <time>2017-03-31T20:14:26Z</time>
      </trkpt>
      <trkpt lat="49.32207" lon="1.00995">
        <ele>90.208</ele>
        <time>2017-03-31T20:14:46Z</time>
      </trkpt>
      <trkpt lat="49.32201" lon="1.00985">
        <ele>88.538</ele>
        <time>2017-03-31T20:15:06Z</time>
      </trkpt>
      <trkpt lat="49.32175" lon="1.00984">
        <ele>74.81</ele>
        <time>2017-03-31T20:15:26Z</time>
      </trkpt>
      <trkpt lat="49.32162" lon="1.00975">
        <ele>68.749</ele>
        <time>2017-03-31T20:15:46Z</time>
      </trkpt>
      <trkpt lat="49.32155" lon="1.00963">
        <ele>65.416</ele>
        <time>2017-03-31T20:16:06Z</time>
      </trkpt>
      <trkpt lat="49.32146" lon="1.00953">
        <ele>60.59</ele>
        <time>2017-03-31T20:16:26Z</time>
      </trkpt>
      <trkpt lat="49.3213" lon="1.00951">
        <ele>49.047</ele>
        <time>2017-03-31T20:16:46Z</time>
      </trkpt>
      <trkpt lat="49.32116" lon="1.00944">
        <ele>40.413</ele>
        <time>2017-03-31T20:17:06Z</time>
      </trkpt>
      <trkpt lat="49.32107" lon="1.00929">
        <ele>39.471</ele>
        <time>2017-03-31T20:17:26Z</time>
      </trkpt>
      <trkpt lat="49.32094" lon="1.0086">
        <ele>52.569</ele>
        <time>2017-03-31T20:17:46Z</time>
      </trkpt>
      <trkpt lat="49.32097" lon="1.00839">
        <ele>61.604</ele>
        <time>2017-03-31T20:18:06Z</time>
      </trkpt>
      <trkpt lat="49.321" lon="1.00832">
        <ele>65.924</ele>
        <time>2017-03-31T20:18:26Z</time>
      </trkpt>
      <trkpt lat="49.32114" lon="1.0078">
        <ele>81.508</ele>
        <time>2017-03-31T20:18:46Z</time>
      </trkpt>
      <trkpt lat="49.32108" lon="1.00729">
        <ele>90.07</ele>
        <time>2017-03-31T20:19:06Z</time>
      </trkpt>
      <trkpt lat="49.32095" lon="1.00716">
        <ele>92.652</ele>
        <time>2017-03-31T20:19:26Z</time>
      </trkpt>
      <trkpt lat="49.32093" lon="1.00702">
        <ele>95.731</ele>
        <time>2017-03-31T20:19:46Z</time>
      </trkpt>
      <trkpt lat="49.32101" lon="1.00684">
        <ele>97.638</ele>
        <time>2017-03-31T20:20:06Z</time>
      </trkpt>
      <trkpt lat="49.32074" lon="1.00667">
        <ele>99.382</ele>
        <time>2017-03-31T20:20:26Z</time>
      </trkpt>
      <trkpt lat="49.3205" lon="1.00643">
        <ele>96.769</ele>
        <time>2017-03-31T20:20:46Z</time>
      </trkpt>
      <trkpt lat="49.32033" lon="1.00596">
        <ele>101.635</ele>
        <time>2017-03-31T20:21:06Z</time>
      </trkpt>
      <trkpt lat="49.32022" lon="1.00576">
        <ele>102.973</ele>
        <time>2017-03-31T20:21:26Z</time>
      </trkpt>
      <trkpt lat="49.31997" lon="1.0058">
        <ele>89.566</ele>
        <time>2017-03-31T20:21:46Z</time>
      </trkpt>
      <trkpt lat="49.31987" lon="1.00558">
        <ele>92.129</ele>
        <time>2017-03-31T20:22:06Z</time>
      </trkpt>
      <trkpt lat="49.3198" lon="1.0051">
        <ele>100.021</ele>
        <time>2017-03-31T20:22:26Z</time>
      </trkpt>
      <trkpt lat="49.31971" lon="1.0048">
        <ele>104.308</ele>
        <time>2017-03-31T20:22:46Z</time>
      </trkpt>
      <trkpt lat="49.31953" lon="1.00458">
        <ele>103.17</ele>
        <time>2017-03-31T20:23:06Z</time>
      </trkpt>
      <trkpt lat="49.31934" lon="1.00442">
        <ele>98.242</ele>
        <time>2017-03-31T20:23:26Z</time>
      </trkpt>
      <trkpt lat="49.31931" lon="1.00404">
        <ele>107.521</ele>
        <time>2017-03-31T20:23:46Z</time>
      </trkpt>
      <trkpt lat="49.31899" lon="1.00392">
        <ele>94.958</ele>
        <time>2017-03-31T20:24:06Z</time>
      </trkpt>
      <trkpt lat="49.31884" lon="1.00372">
        <ele>91.942</ele>
        <time>2017-03-31T20:24:26Z</time>
      </trkpt>
      <trkpt lat="49.31873" lon="1.00343">
        <ele>92.069</ele>
        <time>2017-03-31T20:24:46Z</time>
      </trkpt>
      <trkpt lat="49.31881" lon="1.00316">
        <ele>100.845</ele>
        <time>2017-03-31T20:25:06Z</time>
      </trkpt>
      <trkpt lat="49.31865" lon="1.00303">
        <ele>94.313</ele>
        <time>2017-03-31T20:25:26Z</time>
      </trkpt>
      <trkpt lat="49.31849" lon="1.00309">
        <ele>85.827</ele>
        <time>2017-03-31T20:25:46Z</time>
      </trkpt>
      <trkpt lat="49.31843" lon="1.00292">
        <ele>86.468</ele>
        <time>2017-03-31T20:26:06Z</time>
      </trkpt>
      <trkpt lat="49.31831" lon="1.00287">
        <ele>82.114</ele>
        <time>2017-03-31T20:26:26Z</time>
      </trkpt>
      <trkpt lat="49.31821" lon="1.00252">
        <ele>82.208</ele>
        <time>2017-03-31T20:26:46Z</time>
      </trkpt>
      <trkpt lat="49.31796" lon="1.0024">
        <ele>72.726</ele>
        <time>2017-03-31T20:27:06Z</time>
      </trkpt>
      <trkpt lat="49.31787" lon="1.00222">
        <ele>73.498</ele>
        <time>2017-03-31T20:27:26Z</time>
      </trkpt>
      <trkpt lat="49.31753" lon="1.00188">
        <ele>70.037</ele>
        <time>2017-03-31T20:27:46Z</time>
      </trkpt>
      <trkpt lat="49.31742" lon="1.00157">
        <ele>70.744</ele>
        <time>2017-03-31T20:28:06Z</time>
      </trkpt>
      <trkpt lat="49.31738" lon="1.00129">
        <ele>71.938</ele>
        <time>2017-03-31T20:28:26Z</time>
      </trkpt>
      <trkpt lat="49.31785" lon="1.00024">
        <ele>70.465</ele>
        <time>2017-03-31T20:28:46Z</time>
      </trkpt>
      <trkpt lat="49.31788" lon="0.99957">
        <ele>67.551</ele>
        <time>2017-03-31T20:29:06Z</time>
      </trkpt>
      <trkpt lat="49.31807" lon="0.9992">
        <ele>65.149</ele>
        <time>2017-03-31T20:29:26Z</time>
      </trkpt>
      <trkpt lat="49.31821" lon="0.99846">
        <ele>60.873</ele>
        <time>2017-03-31T20:29:46Z</time>
      </trkpt>
      <trkpt lat="49.31835" lon="0.99822">
        <ele>64.085</ele>
        <time>2017-03-31T20:30:06Z</time>
      </trkpt>
      <trkpt lat="49.31843" lon="0.99816">
        <ele>66.813</ele>
        <time>2017-03-31T20:30:26Z</time>
      </trkpt>
      <trkpt lat="49.31829" lon="0.99773">
        <ele>67.508</ele>
        <time>2017-03-31T20:30:46Z</time>
      </trkpt>
      <trkpt lat="49.31763" lon="0.99693">
        <ele>51.791</ele>
        <time>2017-03-31T20:31:06Z</time>
      </trkpt>
      <trkpt lat="49.31754" lon="0.99666">
        <ele>46.053</ele>
        <time>2017-03-31T20:31:26Z</time>
      </trkpt>
      <trkpt lat="49.31737" lon="0.99643">
        <ele>37.032</ele>
        <time>2017-03-31T20:31:46Z</time>
      </trkpt>
      <trkpt lat="49.31719" lon="0.99639">
        <ele>32.789</ele>
        <time>2017-03-31T20:32:06Z</time>
      </trkpt>
      <trkpt lat="49.31729" lon="0.99592">
        <ele>24.293</ele>
        <time>2017-03-31T20:32:26Z</time>
      </trkpt>
      <trkpt lat="49.31744" lon="0.99563">
        <ele>20.89</ele>
        <time>2017-03-31T20:32:46Z</time>
      </trkpt>
      <trkpt lat="49.3179" lon="0.99495">
        <ele>15.176</ele>
        <time>2017-03-31T20:33:06Z</time>
      </trkpt>
      <trkpt lat="49.31802" lon="0.99463">
        <ele>14.594</ele>
        <time>2017-03-31T20:33:26Z</time>
      </trkpt>
      <trkpt lat="49.31859" lon="0.99411">
        <ele>15.334</ele>
        <time>2017-03-31T20:33:46Z</time>
      </trkpt>
      <trkpt lat="49.31868" lon="0.99392">
        <ele>13.455</ele>
        <time>2017-03-31T20:34:06Z</time>
      </trkpt>
      <trkpt lat="49.31882" lon="0.99388">
        <ele>13.01</ele>
        <time>2017-03-31T20:34:26Z</time>
      </trkpt>
      <trkpt lat="49.31892" lon="0.99358">
        <ele>13.308</ele>
        <time>2017-03-31T20:34:46Z</time>
      </trkpt>
      <trkpt lat="49.31905" lon="0.99358">
        <ele>14.747</ele>
        <time>2017-03-31T20:35:06Z</time>
      </trkpt>
      <trkpt lat="49.31923" lon="0.99299">
        <ele>15.929</ele>
        <time>2017-03-31T20:35:26Z</time>
      </trkpt>
      <trkpt lat="49.31934" lon="0.99272">
        <ele>16.248</ele>
        <time>2017-03-31T20:35:46Z</time>
      </trkpt>
      <trkpt lat="49.31992" lon="0.99161">
        <ele>15.555</ele>
        <time>2017-03-31T20:36:06Z</time>
      </trkpt>
      <trkpt lat="49.32065" lon="0.99012">
        <ele>21.939</ele>
        <time>2017-03-31T20:36:26Z</time>
      </trkpt>
      <trkpt lat="49.32079" lon="0.98968">
        <ele>22.326</ele>
        <time>2017-03-31T20:36:46Z</time>
      </trkpt>
      <trkpt lat="49.32102" lon="0.98874">
        <ele>19.922</ele>
        <time>2017-03-31T20:37:06Z</time>
      </trkpt>
      <trkpt lat="49.32107" lon="0.98833">
        <ele>21.79</ele>
        <time>2017-03-31T20:37:26Z</time>
      </trkpt>
      <trkpt lat="49.32114" lon="0.98797">
        <ele>22.217</ele>
        <time>2017-03-31T20:37:46Z</time>
      </trkpt>
      <trkpt lat="49.3213" lon="0.98749">
        <ele>22.287</ele>
        <time>2017-03-31T20:38:06Z</time>
      </trkpt>
      <trkpt lat="49.3216" lon="0.98708">
        <ele>29.715</ele>
        <time>2017-03-31T20:38:26Z</time>
      </trkpt>
      <trkpt lat="49.32187" lon="0.98681">
        <ele>39.308</ele>
        <time>2017-03-31T20:38:46Z</time>
      </trkpt>
      <trkpt lat="49.32195" lon="0.98658">
        <ele>44.975</ele>
        <time>2017-03-31T20:39:06Z</time>
      </trkpt>
      <trkpt lat="49.32197" lon="0.9857">
        <ele>52.627</ele>
        <time>2017-03-31T20:39:26Z</time>
      </trkpt>
      <trkpt lat="49.32222" lon="0.98492">
        <ele>54.626</ele>
        <time>2017-03-31T20:39:46Z</time>
      </trkpt>
      <trkpt lat="49.32248" lon="0.98385">
        <ele>54.753</ele>
        <time>2017-03-31T20:40:06Z</time>
      </trkpt>
      <trkpt lat="49.32277" lon="0.98282">
        <ele>53.277</ele>
        <time>2017-03-31T20:40:26Z</time>
      </trkpt>
      <trkpt lat="49.323" lon="0.98241">
        <ele>49.094</ele>
        <time>2017-03-31T20:40:46Z</time>
      </trkpt>
      <trkpt lat="49.32323" lon="0.98225">
        <ele>45.89</ele>
        <time>2017-03-31T20:41:06Z</time>
      </trkpt>
      <trkpt lat="49.32341" lon="0.98223">
        <ele>43.858</ele>
        <time>2017-03-31T20:41:26Z</time>
      </trkpt>
      <trkpt lat="49.32387" lon="0.98242">
        <ele>39.778</ele>
        <time>2017-03-31T20:41:46Z</time>
      </trkpt>
      <trkpt lat="49.32419" lon="0.98246">
        <ele>40.233</ele>
        <time>2017-03-31T20:42:06Z</time>
      </trkpt>
      <trkpt lat="49.32452" lon="0.98238">
        <ele>38.226</ele>
        <time>2017-03-31T20:42:26Z</time>
      </trkpt>
      <trkpt lat="49.32483" lon="0.98219">
        <ele>33.808</ele>
        <time>2017-03-31T20:42:46Z</time>
      </trkpt>
      <trkpt lat="49.32517" lon="0.98172">
        <ele>28.821</ele>
        <time>2017-03-31T20:43:06Z</time>
      </trkpt>
      <trkpt lat="49.3261" lon="0.98064">
        <ele>30.083</ele>
        <time>2017-03-31T20:43:26Z</time>
      </trkpt>
      <trkpt lat="49.32654" lon="0.98004">
        <ele>27.342</ele>
        <time>2017-03-31T20:43:46Z</time>
      </trkpt>
      <trkpt lat="49.32712" lon="0.97892">
        <ele>25.069</ele>
        <time>2017-03-31T20:44:06Z</time>
      </trkpt>
      <trkpt lat="49.32743" lon="0.97815">
        <ele>25.053</ele>
        <time>2017-03-31T20:44:26Z</time>
      </trkpt>
      <trkpt lat="49.32714" lon="0.97752">
        <ele>26.36</ele>
        <time>2017-03-31T20:44:46Z</time>
      </trkpt>
      <trkpt lat="49.32702" lon="0.97673">
        <ele>28.626</ele>
        <time>2017-03-31T20:45:06Z</time>
      </trkpt>
      <trkpt lat="49.32693" lon="0.97632">
        <ele>29.144</ele>
        <time>2017-03-31T20:45:26Z</time>
      </trkpt>
      <trkpt lat="49.32594" lon="0.97659">
        <ele>33.714</ele>
        <time>2017-03-31T20:45:46Z</time>
      </trkpt>
      <trkpt lat="49.32561" lon="0.97657">
        <ele>36.154</ele>
        <time>2017-03-31T20:46:06Z</time>
      </trkpt>
      <trkpt lat="49.32528" lon="0.97638">
        <ele>38.109</ele>
        <time>2017-03-31T20:46:26Z</time>
      </trkpt>
      <trkpt lat="49.32491" lon="0.97596">
        <ele>42.408</ele>
        <time>2017-03-31T20:46:46Z</time>
      </trkpt>
      <trkpt lat="49.32493" lon="0.9755">
        <ele>44.565</ele>
        <time>2017-03-31T20:47:06Z</time>
      </trkpt>
      <trkpt lat="49.32488" lon="0.97515">
        <ele>47.947</ele>
        <time>2017-03-31T20:47:26Z</time>
      </trkpt>
      <trkpt lat="49.3246" lon="0.9741">
        <ele>56.666</ele>
        <time>2017-03-31T20:47:46Z</time>
      </trkpt>
      <trkpt lat="49.32431" lon="0.974">
        <ele>55.653</ele>
        <time>2017-03-31T20:48:06Z</time>
      </trkpt>
      <trkpt lat="49.32415" lon="0.97384">
        <ele>57.977</ele>
        <time>2017-03-31T20:48:26Z</time>
      </trkpt>
      <trkpt lat="49.32405" lon="0.97381">
        <ele>57.894</ele>
        <time>2017-03-31T20:48:46Z</time>
      </trkpt>
      <trkpt lat="49.32353" lon="0.97342">
        <ele>57.26</ele>
        <time>2017-03-31T20:49:06Z</time>
      </trkpt>
      <trkpt lat="49.32317" lon="0.97324">
        <ele>56.328</ele>
        <time>2017-03-31T20:49:26Z</time>
      </trkpt>
      <trkpt lat="49.32251" lon="0.97308">
        <ele>52.766</ele>
        <time>2017-03-31T20:49:46Z</time>
      </trkpt>
      <trkpt lat="49.32185" lon="0.97309">
        <ele>51.229</ele>
        <time>2017-03-31T20:50:06Z</time>
      </trkpt>
      <trkpt lat="49.32142" lon="0.97286">
        <ele>55.521</ele>
        <time>2017-03-31T20:50:26Z</time>
      </trkpt>
      <trkpt lat="49.321" lon="0.97269">
        <ele>50.608</ele>
        <time>2017-03-31T20:50:46Z</time>
      </trkpt>
      <trkpt lat="49.32073" lon="0.97274">
        <ele>50.97</ele>
        <time>2020-02-10T19:08:39Z</time>
      </trkpt>
      <trkpt lat="49.32109" lon="0.97086">
        <ele>56.492</ele>
        <time>2020-02-10T19:08:59Z</time>
      </trkpt>
      <trkpt lat="49.32149" lon="0.96984">
        <ele>57.951</ele>
        <time>2020-02-10T19:09:19Z</time>
      </trkpt>
      <trkpt lat="49.3219" lon="0.96899">
        <ele>58.158</ele>
        <time>2020-02-10T19:09:39Z</time>
      </trkpt>
      <trkpt lat="49.32205" lon="0.96839">
        <ele>59.782</ele>
        <time>2020-02-10T19:09:59Z</time>
      </trkpt>
      <trkpt lat="49.32203" lon="0.96809">
        <ele>59.779</ele>
        <time>2020-02-10T19:10:19Z</time>
      </trkpt>
      <trkpt lat="49.32162" lon="0.96703">
        <ele>59.525</ele>
        <time>2020-02-10T19:10:39Z</time>
      </trkpt>
      <trkpt lat="49.32139" lon="0.96595">
        <ele>61.623</ele>
        <time>2020-02-10T19:10:59Z</time>
      </trkpt>
      <trkpt lat="49.32141" lon="0.96481">
        <ele>63.688</ele>
        <time>2020-02-10T19:11:19Z</time>
      </trkpt>
      <trkpt lat="49.32163" lon="0.96389">
        <ele>67.824</ele>
        <time>2020-02-10T19:11:39Z</time>
      </trkpt>
      <trkpt lat="49.32191" lon="0.96299">
        <ele>70.426</ele>
        <time>2020-02-10T19:11:59Z</time>
      </trkpt>
      <trkpt lat="49.32187" lon="0.96259">
        <ele>69.208</ele>
        <time>2020-02-10T19:12:19Z</time>
      </trkpt>
      <trkpt lat="49.32153" lon="0.96153">
        <ele>69.592</ele>
        <time>2020-02-10T19:12:39Z</time>
      </trkpt>
      <trkpt lat="49.32145" lon="0.96087">
        <ele>67.054</ele>
        <time>2020-02-10T19:12:59Z</time>
      </trkpt>
      <trkpt lat="49.32173" lon="0.95984">
        <ele>69.873</ele>
        <time>2020-02-10T19:13:19Z</time>
      </trkpt>
      <trkpt lat="49.32209" lon="0.95942">
        <ele>71.19</ele>
        <time>2020-02-10T19:13:39Z</time>
      </trkpt>
      <trkpt lat="49.32253" lon="0.95921">
        <ele>75.924</ele>
        <time>2017-03-31T20:58:26Z</time>
      </trkpt>
      <trkpt lat="49.32282" lon="0.95799">
        <ele>79.381</ele>
        <time>2017-03-31T20:58:46Z</time>
      </trkpt>
      <trkpt lat="49.32291" lon="0.95718">
        <ele>79.927</ele>
        <time>2017-03-31T20:59:06Z</time>
      </trkpt>
      <trkpt lat="49.32332" lon="0.95583">
        <ele>84.755</ele>
        <time>2017-03-31T20:59:26Z</time>
      </trkpt>
      <trkpt lat="49.3235" lon="0.95411">
        <ele>83.426</ele>
        <time>2017-03-31T20:59:46Z</time>
      </trkpt>
      <trkpt lat="49.32371" lon="0.95309">
        <ele>82.247</ele>
        <time>2017-03-31T21:00:06Z</time>
      </trkpt>
      <trkpt lat="49.3238" lon="0.95293">
        <ele>83.211</ele>
        <time>2017-03-31T21:00:26Z</time>
      </trkpt>
      <trkpt lat="49.32398" lon="0.9528">
        <ele>84.408</ele>
        <time>2017-03-31T21:00:46Z</time>
      </trkpt>
      <trkpt lat="49.3246" lon="0.9526">
        <ele>87.846</ele>
        <time>2017-03-31T21:01:06Z</time>
      </trkpt>
      <trkpt lat="49.32472" lon="0.95244">
        <ele>87.668</ele>
        <time>2017-03-31T21:01:26Z</time>
      </trkpt>
      <trkpt lat="49.32517" lon="0.95065">
        <ele>92.127</ele>
        <time>2017-03-31T21:01:46Z</time>
      </trkpt>
      <trkpt lat="49.32708" lon="0.95105">
        <ele>121.354</ele>
        <time>2017-03-31T21:02:06Z</time>
      </trkpt>
      <trkpt lat="49.3269" lon="0.95148">
        <ele>123.988</ele>
        <time>2017-03-31T21:02:26Z</time>
      </trkpt>
      <trkpt lat="49.32625" lon="0.9526">
        <ele>128.025</ele>
        <time>2017-03-31T21:02:46Z</time>
      </trkpt>
      <trkpt lat="49.32603" lon="0.95329">
        <ele>128.251</ele>
        <time>2017-03-31T21:03:06Z</time>
      </trkpt>
      <trkpt lat="49.32589" lon="0.95401">
        <ele>131.149</ele>
        <time>2017-03-31T21:03:26Z</time>
      </trkpt>
      <trkpt lat="49.32569" lon="0.9544">
        <ele>132.886</ele>
        <time>2017-03-31T21:03:46Z</time>
      </trkpt>
      <trkpt lat="49.32529" lon="0.95538">
        <ele>132.06</ele>
        <time>2017-03-31T21:04:06Z</time>
      </trkpt>
      <trkpt lat="49.32747" lon="0.95627">
        <ele>124.126</ele>
        <time>2017-03-31T21:04:26Z</time>
      </trkpt>
      <trkpt lat="49.32899" lon="0.95693">
        <ele>111.508</ele>
        <time>2017-03-31T21:04:46Z</time>
      </trkpt>
      <trkpt lat="49.32933" lon="0.95783">
        <ele>106.842</ele>
        <time>2017-03-31T21:05:06Z</time>
      </trkpt>
      <trkpt lat="49.32989" lon="0.95966">
        <ele>99.824</ele>
        <time>2017-03-31T21:05:26Z</time>
      </trkpt>
      <trkpt lat="49.33037" lon="0.96145">
        <ele>84.613</ele>
        <time>2017-03-31T21:05:46Z</time>
      </trkpt>
      <trkpt lat="49.33091" lon="0.9631">
        <ele>64.66</ele>
        <time>2017-03-31T21:06:06Z</time>
      </trkpt>
      <trkpt lat="49.33193" lon="0.96335">
        <ele>60.344</ele>
        <time>2017-03-31T21:06:26Z</time>
      </trkpt>
      <trkpt lat="49.33223" lon="0.96336">
        <ele>57.341</ele>
        <time>2017-03-31T21:06:46Z</time>
      </trkpt>
      <trkpt lat="49.33248" lon="0.96343">
        <ele>56.847</ele>
        <time>2017-03-31T21:07:06Z</time>
      </trkpt>
      <trkpt lat="49.33268" lon="0.96338">
        <ele>53.795</ele>
        <time>2017-03-31T21:07:26Z</time>
      </trkpt>
      <trkpt lat="49.33295" lon="0.96317">
        <ele>47.251</ele>
        <time>2017-03-31T21:07:46Z</time>
      </trkpt>
      <trkpt lat="49.33314" lon="0.96318">
        <ele>43.901</ele>
        <time>2017-03-31T21:08:06Z</time>
      </trkpt>
      <trkpt lat="49.33288" lon="0.96222">
        <ele>42.611</ele>
        <time>2017-03-31T21:08:26Z</time>
      </trkpt>
      <trkpt lat="49.33284" lon="0.96188">
        <ele>41.608</ele>
        <time>2017-03-31T21:08:46Z</time>
      </trkpt>
      <trkpt lat="49.33286" lon="0.96042">
        <ele>38.899</ele>
        <time>2017-03-31T21:09:06Z</time>
      </trkpt>
      <trkpt lat="49.33364" lon="0.95914">
        <ele>41.821</ele>
        <time>2017-03-31T21:09:26Z</time>
      </trkpt>
      <trkpt lat="49.33393" lon="0.95886">
        <ele>40.76</ele>
        <time>2017-03-31T21:09:46Z</time>
      </trkpt>
      <trkpt lat="49.33437" lon="0.95893">
        <ele>40.667</ele>
        <time>2017-03-31T21:10:06Z</time>
      </trkpt>
      <trkpt lat="49.33488" lon="0.95868">
        <ele>44.391</ele>
        <time>2017-03-31T21:10:26Z</time>
      </trkpt>
      <trkpt lat="49.3352" lon="0.95839">
        <ele>47.878</ele>
        <time>2017-03-31T21:10:46Z</time>
      </trkpt>
      <trkpt lat="49.3355" lon="0.95759">
        <ele>45.424</ele>
        <time>2017-03-31T21:11:06Z</time>
      </trkpt>
      <trkpt lat="49.33571" lon="0.95778">
        <ele>48.172</ele>
        <time>2017-03-31T21:11:26Z</time>
      </trkpt>
      <trkpt lat="49.33626" lon="0.95838">
        <ele>54.069</ele>
        <time>2017-03-31T21:11:46Z</time>
      </trkpt>
      <trkpt lat="49.33708" lon="0.95919">
        <ele>65.704</ele>
        <time>2017-03-31T21:12:06Z</time>
      </trkpt>
      <trkpt lat="49.33735" lon="0.95956">
        <ele>68.124</ele>
        <time>2017-03-31T21:12:26Z</time>
      </trkpt>
      <trkpt lat="49.33746" lon="0.96002">
        <ele>71.008</ele>
        <time>2017-03-31T21:12:46Z</time>
      </trkpt>
      <trkpt lat="49.33746" lon="0.96052">
        <ele>77.39</ele>
        <time>2017-03-31T21:13:06Z</time>
      </trkpt>
      <trkpt lat="49.3372" lon="0.96123">
        <ele>81.822</ele>
        <time>2017-03-31T21:13:26Z</time>
      </trkpt>
      <trkpt lat="49.33723" lon="0.96158">
        <ele>84.481</ele>
        <time>2017-03-31T21:13:46Z</time>
      </trkpt>
      <trkpt lat="49.33762" lon="0.9624">
        <ele>91.028</ele>
        <time>2017-03-31T21:14:06Z</time>
      </trkpt>
      <trkpt lat="49.33803" lon="0.96229">
        <ele>89.242</ele>
        <time>2017-03-31T21:14:26Z</time>
      </trkpt>
      <trkpt lat="49.3383" lon="0.96229">
        <ele>89.029</ele>
        <time>2017-03-31T21:14:46Z</time>
      </trkpt>
      <trkpt lat="49.33839" lon="0.96237">
        <ele>88.775</ele>
        <time>2017-03-31T21:15:06Z</time>
      </trkpt>
      <trkpt lat="49.33822" lon="0.96267">
        <ele>90.663</ele>
        <time>2017-03-31T21:15:26Z</time>
      </trkpt>
      <trkpt lat="49.3382" lon="0.96292">
        <ele>93.826</ele>
        <time>2017-03-31T21:15:46Z</time>
      </trkpt>
      <trkpt lat="49.33947" lon="0.96201">
        <ele>89.147</ele>
        <time>2017-03-31T21:16:06Z</time>
      </trkpt>
      <trkpt lat="49.33971" lon="0.96168">
        <ele>86.311</ele>
        <time>2017-03-31T21:16:26Z</time>
      </trkpt>
      <trkpt lat="49.33987" lon="0.96127">
        <ele>83.908</ele>
        <time>2017-03-31T21:16:46Z</time>
      </trkpt>
      <trkpt lat="49.34025" lon="0.9605">
        <ele>77.786</ele>
        <time>2017-03-31T21:17:06Z</time>
      </trkpt>
      <trkpt lat="49.34049" lon="0.95977">
        <ele>69.218</ele>
        <time>2017-03-31T21:17:26Z</time>
      </trkpt>
      <trkpt lat="49.34085" lon="0.959">
        <ele>57.697</ele>
        <time>2017-03-31T21:17:46Z</time>
      </trkpt>
      <trkpt lat="49.34089" lon="0.95924">
        <ele>56.164</ele>
        <time>2017-03-31T21:18:06Z</time>
      </trkpt>
      <trkpt lat="49.34102" lon="0.95859">
        <ele>55.718</ele>
        <time>2017-03-31T21:18:26Z</time>
      </trkpt>
      <trkpt lat="49.34147" lon="0.95807">
        <ele>43.525</ele>
        <time>2017-03-31T21:18:46Z</time>
      </trkpt>
      <trkpt lat="49.34166" lon="0.95773">
        <ele>36.731</ele>
        <time>2017-03-31T21:19:06Z</time>
      </trkpt>
      <trkpt lat="49.34183" lon="0.95778">
        <ele>28.319</ele>
        <time>2017-03-31T21:19:26Z</time>
      </trkpt>
      <trkpt lat="49.34199" lon="0.95801">
        <ele>19.994</ele>
        <time>2017-03-31T21:19:46Z</time>
      </trkpt>
      <trkpt lat="49.3421" lon="0.95806">
        <ele>14.857</ele>
        <time>2017-03-31T21:20:06Z</time>
      </trkpt>
      <trkpt lat="49.34218" lon="0.95827">
        <ele>11.522</ele>
        <time>2017-03-31T21:20:26Z</time>
      </trkpt>
      <trkpt lat="49.34217" lon="0.95782">
        <ele>12.508</ele>
        <time>2017-03-31T21:20:46Z</time>
      </trkpt>
      <trkpt lat="49.34239" lon="0.95598">
        <ele>13.053</ele>
        <time>2017-03-31T21:21:06Z</time>
      </trkpt>
      <trkpt lat="49.34244" lon="0.95505">
        <ele>12.325</ele>
        <time>2017-03-31T21:21:26Z</time>
      </trkpt>
      <trkpt lat="49.34259" lon="0.955">
        <ele>9.394</ele>
        <time>2017-03-31T21:21:46Z</time>
      </trkpt>
      <trkpt lat="49.34275" lon="0.95489">
        <ele>6.981</ele>
        <time>2017-03-31T21:22:06Z</time>
      </trkpt>
      <trkpt lat="49.34329" lon="0.95544">
        <ele>4.765</ele>
        <time>2017-03-31T21:22:26Z</time>
      </trkpt>
      <trkpt lat="49.34405" lon="0.95575">
        <ele>4.992</ele>
        <time>2017-03-31T21:22:46Z</time>
      </trkpt>
      <trkpt lat="49.34407" lon="0.95551">
        <ele>5.938</ele>
        <time>2017-03-31T21:23:06Z</time>
      </trkpt>
      <trkpt lat="49.34397" lon="0.95542">
        <ele>5.996</ele>
        <time>2017-03-31T21:23:26Z</time>
      </trkpt>
      <trkpt lat="49.34398" lon="0.95462">
        <ele>8.676</ele>
        <time>2017-03-31T21:23:46Z</time>
      </trkpt>
      <trkpt lat="49.34394" lon="0.95417">
        <ele>8.89</ele>
        <time>2017-03-31T21:24:06Z</time>
      </trkpt>
      <trkpt lat="49.3439" lon="0.95394">
        <ele>8.919</ele>
        <time>2017-03-31T21:24:26Z</time>
      </trkpt>
      <trkpt lat="49.3451" lon="0.9492">
        <ele>6.208</ele>
        <time>2017-03-31T21:24:46Z</time>
      </trkpt>
      <trkpt lat="49.3451" lon="0.94864">
        <ele>5.451</ele>
        <time>2017-03-31T21:25:06Z</time>
      </trkpt>
      <trkpt lat="49.34523" lon="0.94809">
        <ele>6.913</ele>
        <time>2017-03-31T21:25:26Z</time>
      </trkpt>
      <trkpt lat="49.34556" lon="0.94826">
        <ele>9.732</ele>
        <time>2017-03-31T21:25:46Z</time>
      </trkpt>
      <trkpt lat="49.34556" lon="0.94795">
        <ele>8.399</ele>
        <time>2017-03-31T21:26:06Z</time>
      </trkpt>
      <trkpt lat="49.34632" lon="0.94483">
        <ele>5.573</ele>
        <time>2017-03-31T21:26:26Z</time>
      </trkpt>
      <trkpt lat="49.34668" lon="0.94362">
        <ele>10.04</ele>
        <time>2017-03-31T21:26:46Z</time>
      </trkpt>
      <trkpt lat="49.34669" lon="0.94314">
        <ele>9.156</ele>
        <time>2017-03-31T21:27:06Z</time>
      </trkpt>
      <trkpt lat="49.34711" lon="0.94155">
        <ele>6.894</ele>
        <time>2017-03-31T21:27:26Z</time>
      </trkpt>
      <trkpt lat="49.3475" lon="0.93994">
        <ele>14.472</ele>
        <time>2017-03-31T21:27:46Z</time>
      </trkpt>
      <trkpt lat="49.34774" lon="0.93922">
        <ele>14.013</ele>
        <time>2017-03-31T21:28:06Z</time>
      </trkpt>
      <trkpt lat="49.34777" lon="0.93903">
        <ele>13.014</ele>
        <time>2017-03-31T21:28:26Z</time>
      </trkpt>
      <trkpt lat="49.34808" lon="0.93929">
        <ele>11.608</ele>
        <time>2017-03-31T21:28:46Z</time>
      </trkpt>
      <trkpt lat="49.34917" lon="0.93962">
        <ele>10.691</ele>
        <time>2017-03-31T21:29:06Z</time>
      </trkpt>
      <trkpt lat="49.34989" lon="0.93974">
        <ele>9.463</ele>
        <time>2017-03-31T21:29:26Z</time>
      </trkpt>
      <trkpt lat="49.35006" lon="0.93893">
        <ele>8.962</ele>
        <time>2017-03-31T21:29:46Z</time>
      </trkpt>
      <trkpt lat="49.35026" lon="0.93718">
        <ele>1.139</ele>
        <time>2017-03-31T21:30:06Z</time>
      </trkpt>
      <trkpt lat="49.35027" lon="0.93693">
        <ele>4.933</ele>
        <time>2017-03-31T21:30:26Z</time>
      </trkpt>
      <trkpt lat="49.35034" lon="0.93653">
        <ele>3.79</ele>
        <time>2017-03-31T21:30:46Z</time>
      </trkpt>
      <trkpt lat="49.3505" lon="0.93613">
        <ele>4.136</ele>
        <time>2017-03-31T21:31:06Z</time>
      </trkpt>
      <trkpt lat="49.35057" lon="0.93604">
        <ele>4.354</ele>
        <time>2017-03-31T21:31:26Z</time>
      </trkpt>
      <trkpt lat="49.35071" lon="0.93534">
        <ele>5.345</ele>
        <time>2017-03-31T21:31:46Z</time>
      </trkpt>
      <trkpt lat="49.35117" lon="0.93379">
        <ele>2.047</ele>
        <time>2017-03-31T21:32:06Z</time>
      </trkpt>
      <trkpt lat="49.35099" lon="0.93361">
        <ele>4.311</ele>
        <time>2017-03-31T21:32:26Z</time>
      </trkpt>
      <trkpt lat="49.35105" lon="0.9335">
        <ele>4.008</ele>
        <time>2017-03-31T21:32:46Z</time>
      </trkpt>
      <trkpt lat="49.35122" lon="0.93363">
        <ele>2.198</ele>
        <time>2017-03-31T21:33:06Z</time>
      </trkpt>
      <trkpt lat="49.35345" lon="0.93545">
        <ele>2.29</ele>
        <time>2017-03-31T21:33:26Z</time>
      </trkpt>
      <trkpt lat="49.35363" lon="0.93492">
        <ele>1.789</ele>
        <time>2017-03-31T21:33:46Z</time>
      </trkpt>
      <trkpt lat="49.35372" lon="0.93483">
        <ele>1.636</ele>
        <time>2017-03-31T21:34:06Z</time>
      </trkpt>
      <trkpt lat="49.35377" lon="0.93456">
        <ele>2.47</ele>
        <time>2017-03-31T21:34:26Z</time>
      </trkpt>
      <trkpt lat="49.35396" lon="0.93404">
        <ele>5.657</ele>
        <time>2017-03-31T21:34:46Z</time>
      </trkpt>
      <trkpt lat="49.3545" lon="0.93285">
        <ele>3.643</ele>
        <time>2017-03-31T21:35:06Z</time>
      </trkpt>
      <trkpt lat="49.35529" lon="0.93142">
        <ele>6.711</ele>
        <time>2017-03-31T21:35:26Z</time>
      </trkpt>
      <trkpt lat="49.35612" lon="0.9301">
        <ele>3.224</ele>
        <time>2017-03-31T21:35:46Z</time>
      </trkpt>
      <trkpt lat="49.35675" lon="0.92923">
        <ele>1.604</ele>
        <time>2017-03-31T21:36:06Z</time>
      </trkpt>
      <trkpt lat="49.35778" lon="0.92793">
        <ele>2.514</ele>
        <time>2017-03-31T21:36:26Z</time>
      </trkpt>
      <trkpt lat="49.35868" lon="0.92697">
        <ele>3.308</ele>
        <time>2017-03-31T21:36:46Z</time>
      </trkpt>
      <trkpt lat="49.35965" lon="0.92605">
        <ele>3.756</ele>
        <time>2017-03-31T21:37:06Z</time>
      </trkpt>
      <trkpt lat="49.36066" lon="0.92514">
        <ele>4.368</ele>
        <time>2017-03-31T21:37:26Z</time>
      </trkpt>
      <trkpt lat="49.36163" lon="0.92434">
        <ele>3.447</ele>
        <time>2017-03-31T21:37:46Z</time>
      </trkpt>
      <trkpt lat="49.36241" lon="0.92374">
        <ele>2.594</ele>
        <time>2017-03-31T21:38:06Z</time>
      </trkpt>
      <trkpt lat="49.36401" lon="0.92266">
        <ele>2.438</ele>
        <time>2017-03-31T21:38:26Z</time>
      </trkpt>
      <trkpt lat="49.3647" lon="0.92222">
        <ele>4.665</ele>
        <time>2017-03-31T21:38:46Z</time>
      </trkpt>
      <trkpt lat="49.36614" lon="0.92149">
        <ele>1.011</ele>
        <time>2017-03-31T21:39:06Z</time>
      </trkpt>
      <trkpt lat="49.36714" lon="0.92102">
        <ele>1.389</ele>
        <time>2017-03-31T21:39:26Z</time>
      </trkpt>
      <trkpt lat="49.36802" lon="0.92072">
        <ele>0.663</ele>
        <time>2017-03-31T21:39:46Z</time>
      </trkpt>
      <trkpt lat="49.36893" lon="0.92051">
        <ele>0.044</ele>
        <time>2017-03-31T21:40:06Z</time>
      </trkpt>
      <trkpt lat="49.37011" lon="0.92033">
        <ele>1.018</ele>
        <time>2017-03-31T21:40:26Z</time>
      </trkpt>
      <trkpt lat="49.37123" lon="0.9202">
        <ele>3.008</ele>
        <time>2017-03-31T21:40:46Z</time>
      </trkpt>
      <trkpt lat="49.37226" lon="0.92003">
        <ele>2.26</ele>
        <time>2017-03-31T21:41:06Z</time>
      </trkpt>
      <trkpt lat="49.37431" lon="0.91975">
        <ele>0.442</ele>
        <time>2017-03-31T21:41:26Z</time>
      </trkpt>
      <trkpt lat="49.37543" lon="0.91962">
        <ele>2.071</ele>
        <time>2017-03-31T21:41:46Z</time>
      </trkpt>
      <trkpt lat="49.37587" lon="0.91952">
        <ele>1.128</ele>
        <time>2017-03-31T21:42:06Z</time>
      </trkpt>
      <trkpt lat="49.37625" lon="0.91954">
        <ele>4.252</ele>
        <time>2017-03-31T21:42:26Z</time>
      </trkpt>
      <trkpt lat="49.37813" lon="0.91925">
        <ele>4.439</ele>
        <time>2017-03-31T21:42:46Z</time>
      </trkpt>
      <trkpt lat="49.37938" lon="0.91915">
        <ele>1.945</ele>
        <time>2017-03-31T21:43:06Z</time>
      </trkpt>
      <trkpt lat="49.38019" lon="0.91913">
        <ele>5.953</ele>
        <time>2017-03-31T21:43:26Z</time>
      </trkpt>
      <trkpt lat="49.38167" lon="0.91924">
        <ele>6.232</ele>
        <time>2017-03-31T21:43:46Z</time>
      </trkpt>
      <trkpt lat="49.3817" lon="0.91966">
        <ele>4.292</ele>
        <time>2017-03-31T21:44:06Z</time>
      </trkpt>
      <trkpt lat="49.38187" lon="0.92097">
        <ele>3.611</ele>
        <time>2017-03-31T21:44:26Z</time>
      </trkpt>
      <trkpt lat="49.38178" lon="0.92115">
        <ele>3.508</ele>
        <time>2017-03-31T21:44:46Z</time>
      </trkpt>
      <trkpt lat="49.38108" lon="0.92211">
        <ele>3.927</ele>
        <time>2017-03-31T21:45:06Z</time>
      </trkpt>
      <trkpt lat="49.38071" lon="0.92254">
        <ele>4.089</ele>
        <time>2017-03-31T21:45:26Z</time>
      </trkpt>
      <trkpt lat="49.38049" lon="0.92286">
        <ele>4.148</ele>
        <time>2017-03-31T21:45:46Z</time>
      </trkpt>
      <trkpt lat="49.38029" lon="0.92335">
        <ele>6.115</ele>
        <time>2017-03-31T21:46:06Z</time>
      </trkpt>
      <trkpt lat="49.38016" lon="0.92382">
        <ele>10.219</ele>
        <time>2017-03-31T21:46:26Z</time>
      </trkpt>
      <trkpt lat="49.38016" lon="0.92436">
        <ele>9.786</ele>
        <time>2017-03-31T21:46:46Z</time>
      </trkpt>
      <trkpt lat="49.38026" lon="0.9258">
        <ele>4.232</ele>
        <time>2017-03-31T21:47:06Z</time>
      </trkpt>
      <trkpt lat="49.38026" lon="0.92748">
        <ele>6.94</ele>
        <time>2017-03-31T21:47:26Z</time>
      </trkpt>
      <trkpt lat="49.38021" lon="0.92766">
        <ele>7.011</ele>
        <time>2017-03-31T21:47:46Z</time>
      </trkpt>
      <trkpt lat="49.38026" lon="0.92781">
        <ele>7.021</ele>
        <time>2017-03-31T21:48:06Z</time>
      </trkpt>
      <trkpt lat="49.38017" lon="0.9295">
        <ele>6.703</ele>
        <time>2017-03-31T21:48:26Z</time>
      </trkpt>
      <trkpt lat="49.38021" lon="0.92965">
        <ele>5.908</ele>
        <time>2017-03-31T21:48:46Z</time>
      </trkpt>
      <trkpt lat="49.38075" lon="0.92959">
        <ele>3.835</ele>
        <time>2017-03-31T21:49:06Z</time>
      </trkpt>
      <trkpt lat="49.38135" lon="0.92975">
        <ele>4.927</ele>
        <time>2017-03-31T21:49:26Z</time>
      </trkpt>
      <trkpt lat="49.38171" lon="0.92978">
        <ele>7.216</ele>
        <time>2017-03-31T21:49:46Z</time>
      </trkpt>
      <trkpt lat="49.38252" lon="0.92998">
        <ele>8.013</ele>
        <time>2017-03-31T21:50:06Z</time>
      </trkpt>
      <trkpt lat="49.38381" lon="0.92999">
        <ele>6.387</ele>
        <time>2017-03-31T21:50:26Z</time>
      </trkpt>
      <trkpt lat="49.3844" lon="0.93015">
        <ele>6.064</ele>
        <time>2017-03-31T21:50:46Z</time>
      </trkpt>
      <trkpt lat="49.3849" lon="0.93007">
        <ele>7.05</ele>
        <time>2017-03-31T21:51:06Z</time>
      </trkpt>
      <trkpt lat="49.3856" lon="0.93027">
        <ele>7.278</ele>
        <time>2017-03-31T21:51:26Z</time>
      </trkpt>
      <trkpt lat="49.38684" lon="0.93049">
        <ele>8.637</ele>
        <time>2017-03-31T21:51:46Z</time>
      </trkpt>
      <trkpt lat="49.38788" lon="0.93072">
        <ele>10.549</ele>
        <time>2017-03-31T21:52:06Z</time>
      </trkpt>
      <trkpt lat="49.38791" lon="0.93177">
        <ele>9.313</ele>
        <time>2017-03-31T21:52:26Z</time>
      </trkpt>
      <trkpt lat="49.38839" lon="0.93176">
        <ele>9.808</ele>
        <time>2017-03-31T21:52:46Z</time>
      </trkpt>
      <trkpt lat="49.3901" lon="0.9313">
        <ele>7.047</ele>
        <time>2017-03-31T21:53:06Z</time>
      </trkpt>
      <trkpt lat="49.3922" lon="0.93136">
        <ele>7.859</ele>
        <time>2017-03-31T21:53:26Z</time>
      </trkpt>
      <trkpt lat="49.39225" lon="0.93138">
        <ele>7.878</ele>
        <time>2017-03-31T12:23:03Z</time>
      </trkpt>
      <trkpt lat="49.39225" lon="0.93138">
        <ele>7.865</ele>
        <time>2017-03-31T12:23:03Z</time>
      </trkpt>
      <trkpt lat="49.39555" lon="0.93247">
        <ele>5.989</ele>
        <time>2017-03-31T12:23:23Z</time>
      </trkpt>
      <trkpt lat="49.39616" lon="0.93278">
        <ele>7.016</ele>
        <time>2017-03-31T12:23:43Z</time>
      </trkpt>
      <trkpt lat="49.3969" lon="0.93345">
        <ele>8.882</ele>
        <time>2017-03-31T12:24:03Z</time>
      </trkpt>
      <trkpt lat="49.39825" lon="0.93538">
        <ele>12.08</ele>
        <time>2017-03-31T12:24:23Z</time>
      </trkpt>
    </trkseg>
  </trk>
</gpx>